<?xml version='1.0' encoding='UTF-8'?><gpx version="1.1" creator="JPX - https://github.com/jenetics/jpx" xmlns="http://www.topografix.com/GPX/1/1"><trk><trkseg><trkpt lat="43.49633963590874" lon="10.357415087253068"><ele>227.0</ele><time>2026-04-17T13:08:11.999Z</time></trkpt><trkpt lat="43.49642707286019" lon="10.357520882760596"><ele>227.0</ele><time>2026-04-17T13:08:13.999Z</time></trkpt><trkpt lat="43.49648669640233" lon="10.357570160178305"><ele>227.0</ele><time>2026-04-17T13:08:14.999Z</time></trkpt><trkpt lat="43.49657081714252" lon="10.357719140463972"><ele>227.0</ele><time>2026-04-17T13:08:16.999Z</time></trkpt><trkpt lat="43.49660018764187" lon="10.357819730730318"><ele>227.0</ele><time>2026-04-17T13:08:17.999Z</time></trkpt><trkpt lat="43.49659477474728" lon="10.357943663782583"><ele>227.2</ele><time>2026-04-17T13:08:18.999Z</time></trkpt><trkpt lat="43.49659241191165" lon="10.358067459468463"><ele>227.39999999999998</ele><time>2026-04-17T13:08:19.999Z</time></trkpt><trkpt lat="43.49660372726489" lon="10.358203553246911"><ele>227.60000000000002</ele><time>2026-04-17T13:08:20.999Z</time></trkpt><trkpt lat="43.49659154699445" lon="10.358338059900422"><ele>227.8</ele><time>2026-04-17T13:08:21.999Z</time></trkpt><trkpt lat="43.49655640328871" lon="10.358468232841636"><ele>228.0</ele><time>2026-04-17T13:08:22.999Z</time></trkpt><trkpt lat="43.49650848023667" lon="10.358579451349101"><ele>228.0</ele><time>2026-04-17T13:08:23.999Z</time></trkpt><trkpt lat="43.49644168705261" lon="10.35866936610416"><ele>228.0</ele><time>2026-04-17T13:08:24.999Z</time></trkpt><trkpt lat="43.49635713479293" lon="10.3587308787475"><ele>228.0</ele><time>2026-04-17T13:08:25.999Z</time></trkpt><trkpt lat="43.49626389104235" lon="10.358799416587274"><ele>228.0</ele><time>2026-04-17T13:08:26.999Z</time></trkpt><trkpt lat="43.49617560190429" lon="10.35888320135411"><ele>228.0</ele><time>2026-04-17T13:08:27.999Z</time></trkpt><trkpt lat="43.49607649453702" lon="10.358949289613488"><ele>229.25</ele><time>2026-04-17T13:08:28.999Z</time></trkpt><trkpt lat="43.495976539105094" lon="10.359020437901448"><ele>230.5</ele><time>2026-04-17T13:08:29.999Z</time></trkpt><trkpt lat="43.49587420081811" lon="10.359097476116224"><ele>231.75</ele><time>2026-04-17T13:08:30.999Z</time></trkpt><trkpt lat="43.49576822755975" lon="10.35917864952995"><ele>233.0</ele><time>2026-04-17T13:08:31.999Z</time></trkpt><trkpt lat="43.4956597364353" lon="10.359264268973313"><ele>233.0</ele><time>2026-04-17T13:08:32.999Z</time></trkpt><trkpt lat="43.49554708716257" lon="10.359345011388559"><ele>233.0</ele><time>2026-04-17T13:08:33.999Z</time></trkpt><trkpt lat="43.49543189238781" lon="10.359428420702477"><ele>233.0</ele><time>2026-04-17T13:08:34.999Z</time></trkpt><trkpt lat="43.49531533639735" lon="10.359517696837269"><ele>233.0</ele><time>2026-04-17T13:08:35.999Z</time></trkpt><trkpt lat="43.49519768004187" lon="10.359601428123261"><ele>233.25</ele><time>2026-04-17T13:08:36.999Z</time></trkpt><trkpt lat="43.49508375842143" lon="10.35969194410705"><ele>233.5</ele><time>2026-04-17T13:08:37.999Z</time></trkpt><trkpt lat="43.494973186890405" lon="10.35977108962364"><ele>233.75</ele><time>2026-04-17T13:08:38.999Z</time></trkpt><trkpt lat="43.49486049754289" lon="10.359846492987948"><ele>234.0</ele><time>2026-04-17T13:08:39.999Z</time></trkpt><trkpt lat="43.49476562725842" lon="10.359930709916348"><ele>235.0</ele><time>2026-04-17T13:08:40.999Z</time></trkpt><trkpt lat="43.49469415484568" lon="10.360044434411627"><ele>236.0</ele><time>2026-04-17T13:08:41.999Z</time></trkpt><trkpt lat="43.49466352481003" lon="10.360187089646535"><ele>237.0</ele><time>2026-04-17T13:08:42.999Z</time></trkpt><trkpt lat="43.4946702053163" lon="10.36036067638906"><ele>238.0</ele><time>2026-04-17T13:08:43.999Z</time></trkpt><trkpt lat="43.49470399436505" lon="10.360538232177973"><ele>238.8</ele><time>2026-04-17T13:08:44.999Z</time></trkpt><trkpt lat="43.4947423249359" lon="10.36071229607478"><ele>239.60000000000002</ele><time>2026-04-17T13:08:45.999Z</time></trkpt><trkpt lat="43.49474284023566" lon="10.360858552179117"><ele>240.39999999999998</ele><time>2026-04-17T13:08:46.999Z</time></trkpt><trkpt lat="43.49472992962975" lon="10.36098928750764"><ele>241.2</ele><time>2026-04-17T13:08:47.999Z</time></trkpt><trkpt lat="43.49468951187141" lon="10.36111552726064"><ele>242.0</ele><time>2026-04-17T13:08:48.999Z</time></trkpt><trkpt lat="43.49460010516646" lon="10.361207373669032"><ele>244.25</ele><time>2026-04-17T13:08:49.999Z</time></trkpt><trkpt lat="43.49449752580006" lon="10.361256866593848"><ele>246.5</ele><time>2026-04-17T13:08:50.999Z</time></trkpt><trkpt lat="43.494384014047434" lon="10.36124721119984"><ele>248.75</ele><time>2026-04-17T13:08:51.999Z</time></trkpt><trkpt lat="43.49427278123082" lon="10.361179110623645"><ele>251.0</ele><time>2026-04-17T13:08:52.999Z</time></trkpt><trkpt lat="43.494178548770165" lon="10.361059887243968"><ele>251.0</ele><time>2026-04-17T13:08:53.999Z</time></trkpt><trkpt lat="43.494090807428435" lon="10.360892608967346"><ele>251.0</ele><time>2026-04-17T13:08:54.999Z</time></trkpt><trkpt lat="43.493996256543255" lon="10.360723707568686"><ele>251.0</ele><time>2026-04-17T13:08:55.999Z</time></trkpt><trkpt lat="43.4939176610676" lon="10.360558809314558"><ele>251.0</ele><time>2026-04-17T13:08:56.999Z</time></trkpt><trkpt lat="43.49386272090002" lon="10.360379897447071"><ele>250.0</ele><time>2026-04-17T13:08:57.999Z</time></trkpt><trkpt lat="43.49382760229393" lon="10.36019048922701"><ele>249.0</ele><time>2026-04-17T13:08:58.999Z</time></trkpt><trkpt lat="43.4938038306325" lon="10.359993654946155"><ele>248.0</ele><time>2026-04-17T13:08:59.999Z</time></trkpt><trkpt lat="43.49378608644014" lon="10.359794406320976"><ele>247.0</ele><time>2026-04-17T13:09:00.999Z</time></trkpt><trkpt lat="43.49375888191247" lon="10.359604944403918"><ele>252.0</ele><time>2026-04-17T13:09:01.999Z</time></trkpt><trkpt lat="43.49371865709822" lon="10.35942096905898"><ele>257.0</ele><time>2026-04-17T13:09:02.999Z</time></trkpt><trkpt lat="43.49366965545134" lon="10.359235123372633"><ele>262.0</ele><time>2026-04-17T13:09:03.999Z</time></trkpt><trkpt lat="43.493603965397824" lon="10.35906237549144"><ele>267.0</ele><time>2026-04-17T13:09:04.999Z</time></trkpt><trkpt lat="43.49351718087192" lon="10.358907824534459"><ele>264.0</ele><time>2026-04-17T13:09:05.999Z</time></trkpt><trkpt lat="43.49341320979925" lon="10.358768991274149"><ele>261.0</ele><time>2026-04-17T13:09:06.999Z</time></trkpt><trkpt lat="43.493317983418834" lon="10.358643423431692"><ele>258.0</ele><time>2026-04-17T13:09:07.999Z</time></trkpt><trkpt lat="43.49324227922124" lon="10.358539428295297"><ele>255.0</ele><time>2026-04-17T13:09:08.999Z</time></trkpt><trkpt lat="43.49315717576476" lon="10.358471949589886"><ele>255.0</ele><time>2026-04-17T13:09:09.999Z</time></trkpt><trkpt lat="43.49304444413688" lon="10.358445728719"><ele>255.0</ele><time>2026-04-17T13:09:10.999Z</time></trkpt><trkpt lat="43.49293313991915" lon="10.358490991191218"><ele>255.0</ele><time>2026-04-17T13:09:11.999Z</time></trkpt><trkpt lat="43.49281037475254" lon="10.358569183763993"><ele>255.0</ele><time>2026-04-17T13:09:12.999Z</time></trkpt><trkpt lat="43.49269488559888" lon="10.358649494283911"><ele>257.25</ele><time>2026-04-17T13:09:13.999Z</time></trkpt><trkpt lat="43.49256822577502" lon="10.35871655027132"><ele>259.5</ele><time>2026-04-17T13:09:14.999Z</time></trkpt><trkpt lat="43.49245002432374" lon="10.358771752884612"><ele>261.75</ele><time>2026-04-17T13:09:15.999Z</time></trkpt><trkpt lat="43.49231967643672" lon="10.35883269822152"><ele>264.0</ele><time>2026-04-17T13:09:16.999Z</time></trkpt><trkpt lat="43.492180483108186" lon="10.3589037681786"><ele>268.25</ele><time>2026-04-17T13:09:17.999Z</time></trkpt><trkpt lat="43.492067481223124" lon="10.358958313460104"><ele>272.5</ele><time>2026-04-17T13:09:18.999Z</time></trkpt><trkpt lat="43.49194687537458" lon="10.359012741148822"><ele>276.75</ele><time>2026-04-17T13:09:19.999Z</time></trkpt><trkpt lat="43.49182196402409" lon="10.35903963549741"><ele>281.0</ele><time>2026-04-17T13:09:20.999Z</time></trkpt><trkpt lat="43.491691284753884" lon="10.359053419641986"><ele>281.0</ele><time>2026-04-17T13:09:21.999Z</time></trkpt><trkpt lat="43.49157906835793" lon="10.35904905503791"><ele>281.0</ele><time>2026-04-17T13:09:22.999Z</time></trkpt><trkpt lat="43.49148449933508" lon="10.35904171652483"><ele>281.0</ele><time>2026-04-17T13:09:23.999Z</time></trkpt><trkpt lat="43.491401532885575" lon="10.359029428065746"><ele>281.0</ele><time>2026-04-17T13:09:24.999Z</time></trkpt><trkpt lat="43.49130247251554" lon="10.358991956601756"><ele>281.0</ele><time>2026-04-17T13:09:26.999Z</time></trkpt><trkpt lat="43.49126271206255" lon="10.359101133786893"><ele>281.0</ele><time>2026-04-17T13:09:29.999Z</time></trkpt><trkpt lat="43.49127852441039" lon="10.359249813145428"><ele>281.0</ele><time>2026-04-17T13:09:31.999Z</time></trkpt><trkpt lat="43.49130564891308" lon="10.359339475201445"><ele>281.0</ele><time>2026-04-17T13:09:32.999Z</time></trkpt><trkpt lat="43.49134634926005" lon="10.359442989702437"><ele>281.0</ele><time>2026-04-17T13:09:33.999Z</time></trkpt><trkpt lat="43.49138889602865" lon="10.359539683406386"><ele>281.0</ele><time>2026-04-17T13:09:34.999Z</time></trkpt><trkpt lat="43.491431276423526" lon="10.35963461067681"><ele>281.0</ele><time>2026-04-17T13:09:35.999Z</time></trkpt><trkpt lat="43.49145656825521" lon="10.35974069934894"><ele>281.33333333333337</ele><time>2026-04-17T13:09:36.999Z</time></trkpt><trkpt lat="43.49150071793954" lon="10.359825356856552"><ele>281.6666666666667</ele><time>2026-04-17T13:09:37.998Z</time></trkpt><trkpt lat="43.49152684064349" lon="10.359908967866474"><ele>282.0</ele><time>2026-04-17T13:09:38.998Z</time></trkpt><trkpt lat="43.49156862936525" lon="10.360025218295243"><ele>282.3333333333333</ele><time>2026-04-17T13:09:40.998Z</time></trkpt><trkpt lat="43.49160831999944" lon="10.36011219709582"><ele>282.66666666666663</ele><time>2026-04-17T13:09:42.998Z</time></trkpt><trkpt lat="43.49162052783134" lon="10.360207205612559"><ele>283.0</ele><time>2026-04-17T13:09:44.998Z</time></trkpt><trkpt lat="43.49161617654439" lon="10.360320475570358"><ele>283.0</ele><time>2026-04-17T13:10:12.999Z</time></trkpt><trkpt lat="43.49160705855319" lon="10.360410435300798"><ele>283.0</ele><time>2026-04-17T13:10:20.999Z</time></trkpt><trkpt lat="43.49161524142869" lon="10.36049876883561"><ele>283.0</ele><time>2026-04-17T13:10:24.999Z</time></trkpt><trkpt lat="43.49159905090978" lon="10.360637615725803"><ele>283.0</ele><time>2026-04-17T13:10:45.999Z</time></trkpt><trkpt lat="43.49157955025201" lon="10.360765348081777"><ele>283.0</ele><time>2026-04-17T13:10:47.999Z</time></trkpt><trkpt lat="43.49155842470611" lon="10.360922626152956"><ele>283.0</ele><time>2026-04-17T13:10:49.999Z</time></trkpt><trkpt lat="43.49154507428325" lon="10.36109125773463"><ele>283.0</ele><time>2026-04-17T13:10:51.999Z</time></trkpt><trkpt lat="43.491535811539464" lon="10.361178871693655"><ele>283.0</ele><time>2026-04-17T13:10:52.999Z</time></trkpt><trkpt lat="43.491525441091014" lon="10.361273453666694"><ele>283.0</ele><time>2026-04-17T13:10:53.999Z</time></trkpt><trkpt lat="43.491512972077835" lon="10.361365560793045"><ele>283.0</ele><time>2026-04-17T13:10:54.999Z</time></trkpt><trkpt lat="43.491499691949414" lon="10.361457510101795"><ele>283.0</ele><time>2026-04-17T13:10:55.999Z</time></trkpt><trkpt lat="43.49148477483563" lon="10.361551522972071"><ele>283.0</ele><time>2026-04-17T13:10:56.999Z</time></trkpt><trkpt lat="43.49145838882079" lon="10.361693578879144"><ele>283.0</ele><time>2026-04-17T13:10:58.999Z</time></trkpt><trkpt lat="43.491417793132854" lon="10.361842083757443"><ele>283.3333333333333</ele><time>2026-04-17T13:11:00.999Z</time></trkpt><trkpt lat="43.491379502908906" lon="10.36191328040469"><ele>283.66666666666663</ele><time>2026-04-17T13:11:01.999Z</time></trkpt><trkpt lat="43.491313670669896" lon="10.362039466638949"><ele>284.0</ele><time>2026-04-17T13:11:03.999Z</time></trkpt><trkpt lat="43.49125565541263" lon="10.3621290623958"><ele>284.3333333333333</ele><time>2026-04-17T13:11:05.999Z</time></trkpt><trkpt lat="43.4912348636544" lon="10.362215653382057"><ele>284.6666666666667</ele><time>2026-04-17T13:11:13.999Z</time></trkpt><trkpt lat="43.49121688932339" lon="10.362299403477536"><ele>285.0</ele><time>2026-04-17T13:11:15.999Z</time></trkpt><trkpt lat="43.49117682215208" lon="10.362383996842295"><ele>286.8</ele><time>2026-04-17T13:12:25.999Z</time></trkpt><trkpt lat="43.49115334693531" lon="10.362501791698257"><ele>288.6</ele><time>2026-04-17T13:12:47.999Z</time></trkpt><trkpt lat="43.491113390641964" lon="10.362605312023291"><ele>290.4</ele><time>2026-04-17T13:12:49.999Z</time></trkpt><trkpt lat="43.49108665307365" lon="10.362723672571043"><ele>292.2</ele><time>2026-04-17T13:12:51.999Z</time></trkpt><trkpt lat="43.49109814336226" lon="10.362862487816637"><ele>294.0</ele><time>2026-04-17T13:12:53.999Z</time></trkpt><trkpt lat="43.491106234630465" lon="10.363002352653522"><ele>293.59999999999997</ele><time>2026-04-17T13:12:55.999Z</time></trkpt><trkpt lat="43.49110793534674" lon="10.363168907889316"><ele>293.2</ele><time>2026-04-17T13:12:57.999Z</time></trkpt><trkpt lat="43.491083863182226" lon="10.363251620758076"><ele>292.79999999999995</ele><time>2026-04-17T13:12:58.999Z</time></trkpt><trkpt lat="43.491055745113414" lon="10.363408305778872"><ele>292.4</ele><time>2026-04-17T13:13:00.999Z</time></trkpt><trkpt lat="43.49102242204589" lon="10.3635690599533"><ele>292.0</ele><time>2026-04-17T13:13:02.999Z</time></trkpt><trkpt lat="43.49100425397153" lon="10.36366757313036"><ele>292.0</ele><time>2026-04-17T13:13:03.999Z</time></trkpt><trkpt lat="43.49099256124064" lon="10.363776631471765"><ele>292.0</ele><time>2026-04-17T13:13:04.999Z</time></trkpt><trkpt lat="43.49097905463647" lon="10.36388468515398"><ele>292.0</ele><time>2026-04-17T13:13:05.999Z</time></trkpt><trkpt lat="43.49095368538167" lon="10.363996101419504"><ele>292.0</ele><time>2026-04-17T13:13:06.999Z</time></trkpt><trkpt lat="43.490914289772554" lon="10.364098995732965"><ele>292.0</ele><time>2026-04-17T13:13:07.999Z</time></trkpt><trkpt lat="43.490896249678336" lon="10.364188119770514"><ele>292.0</ele><time>2026-04-17T13:13:08.999Z</time></trkpt><trkpt lat="43.49089319208103" lon="10.36427488475677"><ele>292.0</ele><time>2026-04-17T13:13:09.999Z</time></trkpt><trkpt lat="43.49086182746484" lon="10.364355228108098"><ele>292.0</ele><time>2026-04-17T13:13:10.999Z</time></trkpt><trkpt lat="43.490848631058356" lon="10.36445838829573"><ele>292.0</ele><time>2026-04-17T13:13:11.999Z</time></trkpt><trkpt lat="43.490804499521055" lon="10.364560956942988"><ele>292.0</ele><time>2026-04-17T13:13:12.999Z</time></trkpt><trkpt lat="43.49077862093404" lon="10.364671298706197"><ele>292.0</ele><time>2026-04-17T13:13:13.999Z</time></trkpt><trkpt lat="43.49072994928534" lon="10.364774029956179"><ele>292.0</ele><time>2026-04-17T13:13:14.999Z</time></trkpt><trkpt lat="43.490681481769606" lon="10.364868947211663"><ele>291.3333333333333</ele><time>2026-04-17T13:13:15.999Z</time></trkpt><trkpt lat="43.49063788302516" lon="10.364959018062237"><ele>290.66666666666663</ele><time>2026-04-17T13:13:16.999Z</time></trkpt><trkpt lat="43.49059688580306" lon="10.365049530777071"><ele>290.0</ele><time>2026-04-17T13:13:17.999Z</time></trkpt><trkpt lat="43.49056585313946" lon="10.365137741071452"><ele>289.3333333333333</ele><time>2026-04-17T13:13:18.999Z</time></trkpt><trkpt lat="43.490533012877194" lon="10.365236021942543"><ele>288.6666666666667</ele><time>2026-04-17T13:13:19.999Z</time></trkpt><trkpt lat="43.490494023938695" lon="10.36533019387322"><ele>288.0</ele><time>2026-04-17T13:13:20.999Z</time></trkpt><trkpt lat="43.4904576294394" lon="10.365435260816444"><ele>289.0</ele><time>2026-04-17T13:13:21.999Z</time></trkpt><trkpt lat="43.490421188059926" lon="10.365531513525895"><ele>290.0</ele><time>2026-04-17T13:13:22.999Z</time></trkpt><trkpt lat="43.490396347313485" lon="10.36562724924374"><ele>291.0</ele><time>2026-04-17T13:13:23.999Z</time></trkpt><trkpt lat="43.49038785393023" lon="10.365721001394556"><ele>292.0</ele><time>2026-04-17T13:13:24.999Z</time></trkpt><trkpt lat="43.490390031225125" lon="10.365811937974545"><ele>293.0</ele><time>2026-04-17T13:13:25.999Z</time></trkpt><trkpt lat="43.49041057935938" lon="10.365959132850929"><ele>294.0</ele><time>2026-04-17T13:13:27.999Z</time></trkpt><trkpt lat="43.49037909806522" lon="10.366085962540762"><ele>294.0</ele><time>2026-04-17T13:13:29.999Z</time></trkpt><trkpt lat="43.490281683481534" lon="10.366160789713124"><ele>294.0</ele><time>2026-04-17T13:13:31.999Z</time></trkpt><trkpt lat="43.49019927406414" lon="10.36621878904041"><ele>294.0</ele><time>2026-04-17T13:13:33.999Z</time></trkpt><trkpt lat="43.49011565112231" lon="10.366303093495727"><ele>294.0</ele><time>2026-04-17T13:13:35.999Z</time></trkpt><trkpt lat="43.490052072238726" lon="10.366419508354316"><ele>294.0</ele><time>2026-04-17T13:13:37.999Z</time></trkpt><trkpt lat="43.4900357356887" lon="10.366555180019917"><ele>292.8</ele><time>2026-04-17T13:13:39.999Z</time></trkpt><trkpt lat="43.49002849953393" lon="10.366673706490989"><ele>291.59999999999997</ele><time>2026-04-17T13:13:41.999Z</time></trkpt><trkpt lat="43.49002665607255" lon="10.366801129681386"><ele>290.4</ele><time>2026-04-17T13:13:43.999Z</time></trkpt><trkpt lat="43.49001819036756" lon="10.36693903768737"><ele>289.2</ele><time>2026-04-17T13:13:45.999Z</time></trkpt><trkpt lat="43.490002183940916" lon="10.36707895679704"><ele>288.0</ele><time>2026-04-17T13:13:47.999Z</time></trkpt><trkpt lat="43.48998179419542" lon="10.367222082396866"><ele>286.6</ele><time>2026-04-17T13:13:49.999Z</time></trkpt><trkpt lat="43.48997629209574" lon="10.36737021433946"><ele>285.20000000000005</ele><time>2026-04-17T13:13:51.999Z</time></trkpt><trkpt lat="43.489982487569506" lon="10.367537833009193"><ele>283.8</ele><time>2026-04-17T13:13:53.999Z</time></trkpt><trkpt lat="43.48998467922562" lon="10.367625922404924"><ele>282.40000000000003</ele><time>2026-04-17T13:13:54.999Z</time></trkpt><trkpt lat="43.48998469579654" lon="10.367756714991174"><ele>281.0</ele><time>2026-04-17T13:13:56.999Z</time></trkpt><trkpt lat="43.489983315350926" lon="10.367885716912404"><ele>281.0</ele><time>2026-04-17T13:13:58.999Z</time></trkpt><trkpt lat="43.489962662100595" lon="10.367992942651972"><ele>281.0</ele><time>2026-04-17T13:14:00.999Z</time></trkpt><trkpt lat="43.48991864239809" lon="10.368101058306324"><ele>281.0</ele><time>2026-04-17T13:14:02.999Z</time></trkpt><trkpt lat="43.489848547533356" lon="10.368229309981027"><ele>281.0</ele><time>2026-04-17T13:14:04.999Z</time></trkpt><trkpt lat="43.4897975554364" lon="10.36828795989807"><ele>281.0</ele><time>2026-04-17T13:14:05.999Z</time></trkpt><trkpt lat="43.48971137865329" lon="10.36837407825004"><ele>280.6</ele><time>2026-04-17T13:14:07.999Z</time></trkpt><trkpt lat="43.48961825692441" lon="10.36845718549736"><ele>280.20000000000005</ele><time>2026-04-17T13:14:09.999Z</time></trkpt><trkpt lat="43.48954023634495" lon="10.368527861241589"><ele>279.79999999999995</ele><time>2026-04-17T13:14:11.999Z</time></trkpt><trkpt lat="43.48949644544407" lon="10.368637916210728"><ele>279.4</ele><time>2026-04-17T13:14:13.999Z</time></trkpt><trkpt lat="43.48950045576475" lon="10.368776046130646"><ele>279.0</ele><time>2026-04-17T13:14:15.999Z</time></trkpt><trkpt lat="43.48951401863075" lon="10.368864933211931"><ele>277.1666666666667</ele><time>2026-04-17T13:14:16.999Z</time></trkpt><trkpt lat="43.48953368370272" lon="10.36895699012961"><ele>275.3333333333333</ele><time>2026-04-17T13:14:17.999Z</time></trkpt><trkpt lat="43.48952867452734" lon="10.369051110651073"><ele>273.5</ele><time>2026-04-17T13:14:18.999Z</time></trkpt><trkpt lat="43.4895486065625" lon="10.36913661177993"><ele>271.66666666666663</ele><time>2026-04-17T13:14:19.999Z</time></trkpt><trkpt lat="43.48955622915866" lon="10.369258969536157"><ele>269.8333333333333</ele><time>2026-04-17T13:14:20.999Z</time></trkpt><trkpt lat="43.489556103719806" lon="10.369397845146697"><ele>268.0</ele><time>2026-04-17T13:14:21.999Z</time></trkpt><trkpt lat="43.489553192475604" lon="10.36950701368996"><ele>268.0</ele><time>2026-04-17T13:14:23Z</time></trkpt><trkpt lat="43.48955248187845" lon="10.36960592472445"><ele>268.0</ele><time>2026-04-17T13:14:24Z</time></trkpt><trkpt lat="43.48954659034436" lon="10.369750555413185"><ele>268.0</ele><time>2026-04-17T13:14:26Z</time></trkpt><trkpt lat="43.489564081572674" lon="10.369900739408802"><ele>268.0</ele><time>2026-04-17T13:14:28Z</time></trkpt><trkpt lat="43.489599762572986" lon="10.369978052346823"><ele>268.0</ele><time>2026-04-17T13:17:16Z</time></trkpt><trkpt lat="43.48965115671172" lon="10.370076828767699"><ele>268.0</ele><time>2026-04-17T13:17:19Z</time></trkpt><trkpt lat="43.48969793975678" lon="10.3701632340859"><ele>267.5</ele><time>2026-04-17T13:17:22Z</time></trkpt><trkpt lat="43.48974884657865" lon="10.370239975604672"><ele>267.0</ele><time>2026-04-17T13:17:25Z</time></trkpt><trkpt lat="43.48980018320725" lon="10.370326939657858"><ele>266.5</ele><time>2026-04-17T13:17:28Z</time></trkpt><trkpt lat="43.48984792092219" lon="10.370428693107787"><ele>266.0</ele><time>2026-04-17T13:17:31Z</time></trkpt><trkpt lat="43.489892528908946" lon="10.370548364732405"><ele>265.5</ele><time>2026-04-17T13:17:34Z</time></trkpt><trkpt lat="43.489915942232535" lon="10.370631299284675"><ele>265.0</ele><time>2026-04-17T13:17:36Z</time></trkpt><trkpt lat="43.48995830782663" lon="10.370746064955444"><ele>264.2</ele><time>2026-04-17T13:17:38Z</time></trkpt><trkpt lat="43.489992914318414" lon="10.370864732640072"><ele>263.4</ele><time>2026-04-17T13:17:40Z</time></trkpt><trkpt lat="43.49002908444463" lon="10.37102404053702"><ele>262.6</ele><time>2026-04-17T13:17:42Z</time></trkpt><trkpt lat="43.490058657960475" lon="10.371186446445263"><ele>261.8</ele><time>2026-04-17T13:17:44Z</time></trkpt><trkpt lat="43.4900486134893" lon="10.3712727953191"><ele>261.0</ele><time>2026-04-17T13:17:45Z</time></trkpt><trkpt lat="43.49007249492709" lon="10.371373331514109"><ele>260.42857142857144</ele><time>2026-04-17T13:17:46Z</time></trkpt><trkpt lat="43.49007561024648" lon="10.371478946736675"><ele>259.85714285714283</ele><time>2026-04-17T13:17:47Z</time></trkpt><trkpt lat="43.49009085079414" lon="10.371574528044743"><ele>259.2857142857143</ele><time>2026-04-17T13:17:48Z</time></trkpt><trkpt lat="43.49010055634919" lon="10.371680567090635"><ele>258.7142857142857</ele><time>2026-04-17T13:17:49Z</time></trkpt><trkpt lat="43.490113988225964" lon="10.371776554368076"><ele>258.14285714285717</ele><time>2026-04-17T13:17:50Z</time></trkpt><trkpt lat="43.49012817422117" lon="10.371874637816234"><ele>257.57142857142856</ele><time>2026-04-17T13:17:51Z</time></trkpt><trkpt lat="43.490144678721116" lon="10.371980621805168"><ele>257.0</ele><time>2026-04-17T13:17:52Z</time></trkpt><trkpt lat="43.490165755913104" lon="10.37208728393462"><ele>257.0</ele><time>2026-04-17T13:17:53Z</time></trkpt><trkpt lat="43.490189175564865" lon="10.372183107665336"><ele>257.0</ele><time>2026-04-17T13:17:54Z</time></trkpt><trkpt lat="43.49023909508129" lon="10.372333642254539"><ele>257.0</ele><time>2026-04-17T13:17:56Z</time></trkpt><trkpt lat="43.490266779200255" lon="10.372468583209939"><ele>257.0</ele><time>2026-04-17T13:17:58Z</time></trkpt><trkpt lat="43.49030328686196" lon="10.372584883406466"><ele>257.0</ele><time>2026-04-17T13:18:00Z</time></trkpt><trkpt lat="43.49034641608449" lon="10.372683467959225"><ele>256.0</ele><time>2026-04-17T13:18:01.999Z</time></trkpt><trkpt lat="43.49036747380505" lon="10.372816145797305"><ele>255.0</ele><time>2026-04-17T13:18:03.999Z</time></trkpt><trkpt lat="43.490394299543865" lon="10.37294275115478"><ele>254.0</ele><time>2026-04-17T13:18:05.999Z</time></trkpt><trkpt lat="43.49041325507117" lon="10.373067649768421"><ele>253.0</ele><time>2026-04-17T13:18:07.999Z</time></trkpt><trkpt lat="43.49045916087068" lon="10.373195584384465"><ele>252.0</ele><time>2026-04-17T13:18:09.999Z</time></trkpt><trkpt lat="43.49050123443335" lon="10.373321704363237"><ele>251.0</ele><time>2026-04-17T13:18:11.999Z</time></trkpt><trkpt lat="43.49054247988741" lon="10.373476425636852"><ele>250.0</ele><time>2026-04-17T13:18:13.999Z</time></trkpt><trkpt lat="43.490555874032275" lon="10.373569011250767"><ele>249.0</ele><time>2026-04-17T13:18:14.999Z</time></trkpt><trkpt lat="43.49059834630158" lon="10.373712403512926"><ele>248.0</ele><time>2026-04-17T13:18:16.999Z</time></trkpt><trkpt lat="43.49063796935514" lon="10.373861444648233"><ele>247.0</ele><time>2026-04-17T13:18:18.999Z</time></trkpt><trkpt lat="43.490669062412515" lon="10.374001110583798"><ele>246.39999999999998</ele><time>2026-04-17T13:18:20.999Z</time></trkpt><trkpt lat="43.49070261353413" lon="10.374146283661554"><ele>245.79999999999998</ele><time>2026-04-17T13:18:22.999Z</time></trkpt><trkpt lat="43.49074412599672" lon="10.374283088075385"><ele>245.2</ele><time>2026-04-17T13:18:24.999Z</time></trkpt><trkpt lat="43.490784257716435" lon="10.374431448004403"><ele>244.6</ele><time>2026-04-17T13:18:26.999Z</time></trkpt><trkpt lat="43.490816284769394" lon="10.374578790434262"><ele>244.0</ele><time>2026-04-17T13:18:28.999Z</time></trkpt><trkpt lat="43.490840660083016" lon="10.37471356395162"><ele>243.4285714285714</ele><time>2026-04-17T13:18:31Z</time></trkpt><trkpt lat="43.49086458713037" lon="10.374822642173784"><ele>242.85714285714283</ele><time>2026-04-17T13:18:33Z</time></trkpt><trkpt lat="43.49088559876844" lon="10.374911824169494"><ele>242.28571428571428</ele><time>2026-04-17T13:18:36Z</time></trkpt><trkpt lat="43.49091592254651" lon="10.374993473645993"><ele>241.7142857142857</ele><time>2026-04-17T13:18:38Z</time></trkpt><trkpt lat="43.490920823320984" lon="10.375080864433999"><ele>241.1428571428571</ele><time>2026-04-17T13:18:41Z</time></trkpt><trkpt lat="43.4909725684194" lon="10.375157201962239"><ele>240.57142857142858</ele><time>2026-04-17T13:18:53Z</time></trkpt><trkpt lat="43.4910337738233" lon="10.375249840299896"><ele>240.0</ele><time>2026-04-17T13:18:56Z</time></trkpt><trkpt lat="43.491066131881055" lon="10.375324834187115"><ele>240.0</ele><time>2026-04-17T13:18:58Z</time></trkpt><trkpt lat="43.491124404153574" lon="10.375375546671494"><ele>240.0</ele><time>2026-04-17T13:19:00Z</time></trkpt><trkpt lat="43.49120689954256" lon="10.375417470150332"><ele>240.0</ele><time>2026-04-17T13:19:02Z</time></trkpt><trkpt lat="43.491281561480704" lon="10.375462491014455"><ele>240.0</ele><time>2026-04-17T13:19:04Z</time></trkpt><trkpt lat="43.4913663509213" lon="10.375513618734969"><ele>240.0</ele><time>2026-04-17T13:19:06Z</time></trkpt><trkpt lat="43.49146801062626" lon="10.375577464361431"><ele>240.0</ele><time>2026-04-17T13:19:08Z</time></trkpt><trkpt lat="43.49153188794611" lon="10.375600860747692"><ele>239.16666666666666</ele><time>2026-04-17T13:19:09Z</time></trkpt><trkpt lat="43.49157329034479" lon="10.375670068027985"><ele>238.33333333333331</ele><time>2026-04-17T13:19:10Z</time></trkpt><trkpt lat="43.491640238445974" lon="10.375713083459262"><ele>237.5</ele><time>2026-04-17T13:19:11Z</time></trkpt><trkpt lat="43.491700120422955" lon="10.375783833013006"><ele>236.66666666666666</ele><time>2026-04-17T13:19:12Z</time></trkpt><trkpt lat="43.491763253238275" lon="10.375902186839989"><ele>235.83333333333331</ele><time>2026-04-17T13:19:14Z</time></trkpt><trkpt lat="43.49180588473304" lon="10.375996329958195"><ele>235.0</ele><time>2026-04-17T13:19:16Z</time></trkpt><trkpt lat="43.49183152130223" lon="10.376110115912569"><ele>235.0</ele><time>2026-04-17T13:19:18Z</time></trkpt><trkpt lat="43.49185625611827" lon="10.37625814297183"><ele>235.0</ele><time>2026-04-17T13:19:20Z</time></trkpt><trkpt lat="43.49184697509391" lon="10.376401046695158"><ele>235.0</ele><time>2026-04-17T13:19:22Z</time></trkpt><trkpt lat="43.49183960044068" lon="10.376537332796898"><ele>235.0</ele><time>2026-04-17T13:19:24Z</time></trkpt><trkpt lat="43.491840186338884" lon="10.37664694083774"><ele>235.0</ele><time>2026-04-17T13:19:26Z</time></trkpt><trkpt lat="43.4918275598883" lon="10.376752612034092"><ele>234.0</ele><time>2026-04-17T13:19:28Z</time></trkpt><trkpt lat="43.491846897173005" lon="10.376861534656884"><ele>233.0</ele><time>2026-04-17T13:19:30Z</time></trkpt><trkpt lat="43.49190104134194" lon="10.376972327558345"><ele>232.0</ele><time>2026-04-17T13:19:32Z</time></trkpt><trkpt lat="43.49198587737825" lon="10.377063857832777"><ele>231.0</ele><time>2026-04-17T13:19:34Z</time></trkpt><trkpt lat="43.492086841214345" lon="10.377126324413847"><ele>230.0</ele><time>2026-04-17T13:19:36Z</time></trkpt><trkpt lat="43.492203059660454" lon="10.377093813888383"><ele>230.00000000000003</ele><time>2026-04-17T13:19:38Z</time></trkpt><trkpt lat="43.49229119538861" lon="10.377012545277125"><ele>230.0</ele><time>2026-04-17T13:19:40Z</time></trkpt><trkpt lat="43.49238313609148" lon="10.376947423954446"><ele>230.0</ele><time>2026-04-17T13:19:42Z</time></trkpt><trkpt lat="43.492473587376665" lon="10.376916474672571"><ele>230.0</ele><time>2026-04-17T13:19:44Z</time></trkpt><trkpt lat="43.49253082132203" lon="10.376990370200526"><ele>230.00000000000003</ele><time>2026-04-17T13:19:45Z</time></trkpt><trkpt lat="43.49258969493446" lon="10.376944936212826"><ele>230.0</ele><time>2026-04-17T13:19:46Z</time></trkpt><trkpt lat="43.49270518745489" lon="10.376971603815026"><ele>230.0</ele><time>2026-04-17T13:19:48Z</time></trkpt><trkpt lat="43.492828389997406" lon="10.37703778953657"><ele>230.0</ele><time>2026-04-17T13:19:50Z</time></trkpt><trkpt lat="43.49289322364517" lon="10.377052360135036"><ele>230.0</ele><time>2026-04-17T13:19:51Z</time></trkpt><trkpt lat="43.49301150855853" lon="10.377095148260352"><ele>230.0</ele><time>2026-04-17T13:19:53Z</time></trkpt><trkpt lat="43.49310833293626" lon="10.377172157072662"><ele>230.0</ele><time>2026-04-17T13:19:55Z</time></trkpt><trkpt lat="43.493199422176005" lon="10.377272881902963"><ele>230.66666666666669</ele><time>2026-04-17T13:19:57Z</time></trkpt><trkpt lat="43.49327466485545" lon="10.37739881283568"><ele>231.33333333333334</ele><time>2026-04-17T13:19:59Z</time></trkpt><trkpt lat="43.493318393011315" lon="10.377461474907347"><ele>232.0</ele><time>2026-04-17T13:20:00Z</time></trkpt><trkpt lat="43.493364537261506" lon="10.377542550306842"><ele>232.66666666666669</ele><time>2026-04-17T13:20:01Z</time></trkpt><trkpt lat="43.49341905317822" lon="10.377629100030946"><ele>233.33333333333334</ele><time>2026-04-17T13:20:02Z</time></trkpt><trkpt lat="43.493462667610906" lon="10.377698683913447"><ele>234.0</ele><time>2026-04-17T13:20:03Z</time></trkpt><trkpt lat="43.493517637505576" lon="10.377777148990631"><ele>234.0</ele><time>2026-04-17T13:20:04Z</time></trkpt><trkpt lat="43.49359349309393" lon="10.377869310753804"><ele>233.99999999999997</ele><time>2026-04-17T13:20:05Z</time></trkpt><trkpt lat="43.49367603407558" lon="10.377958680276176"><ele>233.99999999999997</ele><time>2026-04-17T13:20:06Z</time></trkpt><trkpt lat="43.49375019299564" lon="10.378031869081282"><ele>234.0</ele><time>2026-04-17T13:20:06.999Z</time></trkpt><trkpt lat="43.493821609364524" lon="10.378115562102238"><ele>234.0</ele><time>2026-04-17T13:20:07.999Z</time></trkpt><trkpt lat="43.49392790006483" lon="10.378167110566132"><ele>234.39999999999998</ele><time>2026-04-17T13:20:08.999Z</time></trkpt><trkpt lat="43.494019259531676" lon="10.378226285516932"><ele>234.79999999999998</ele><time>2026-04-17T13:20:09.999Z</time></trkpt><trkpt lat="43.49409285944976" lon="10.378303627733798"><ele>235.20000000000002</ele><time>2026-04-17T13:20:10.999Z</time></trkpt><trkpt lat="43.49416252911509" lon="10.37836224356964"><ele>235.60000000000002</ele><time>2026-04-17T13:20:11.999Z</time></trkpt><trkpt lat="43.494246290181" lon="10.378447062447094"><ele>236.0</ele><time>2026-04-17T13:20:12.999Z</time></trkpt><trkpt lat="43.494326217960065" lon="10.378526737490334"><ele>236.00000000000003</ele><time>2026-04-17T13:20:13.999Z</time></trkpt><trkpt lat="43.49440275075586" lon="10.378570550830942"><ele>236.0</ele><time>2026-04-17T13:20:14.999Z</time></trkpt><trkpt lat="43.49446946799296" lon="10.378620798438243"><ele>236.0</ele><time>2026-04-17T13:20:15.999Z</time></trkpt><trkpt lat="43.49453959708997" lon="10.37867235208242"><ele>236.0</ele><time>2026-04-17T13:20:16.999Z</time></trkpt><trkpt lat="43.4946110905806" lon="10.37871090959527"><ele>236.00000000000003</ele><time>2026-04-17T13:20:17.999Z</time></trkpt><trkpt lat="43.494680829424915" lon="10.378754341762717"><ele>236.0</ele><time>2026-04-17T13:20:18.999Z</time></trkpt><trkpt lat="43.494746992282934" lon="10.378796090621185"><ele>236.16666666666669</ele><time>2026-04-17T13:20:19.999Z</time></trkpt><trkpt lat="43.49480849945479" lon="10.378840378393246"><ele>236.33333333333334</ele><time>2026-04-17T13:20:20.999Z</time></trkpt><trkpt lat="43.49487205618241" lon="10.378878827776193"><ele>236.5</ele><time>2026-04-17T13:20:21.999Z</time></trkpt><trkpt lat="43.494996967502765" lon="10.378884387817742"><ele>236.66666666666669</ele><time>2026-04-17T13:20:23.999Z</time></trkpt><trkpt lat="43.49506075586769" lon="10.378874845556988"><ele>236.83333333333334</ele><time>2026-04-17T13:20:24.999Z</time></trkpt><trkpt lat="43.49513128947482" lon="10.378841808711812"><ele>237.0</ele><time>2026-04-17T13:20:25.999Z</time></trkpt><trkpt lat="43.495231171258276" lon="10.378777346560302"><ele>237.0</ele><time>2026-04-17T13:20:27.999Z</time></trkpt><trkpt lat="43.495327999436455" lon="10.378682369009884"><ele>237.0</ele><time>2026-04-17T13:20:29.999Z</time></trkpt><trkpt lat="43.495427415973005" lon="10.378664214055012"><ele>237.0</ele><time>2026-04-17T13:20:31.999Z</time></trkpt><trkpt lat="43.495527508717785" lon="10.378648230170702"><ele>237.0</ele><time>2026-04-17T13:20:33.999Z</time></trkpt><trkpt lat="43.495648146867865" lon="10.378622899209985"><ele>237.0</ele><time>2026-04-17T13:20:35.999Z</time></trkpt><trkpt lat="43.495744419568545" lon="10.378542969550162"><ele>239.0</ele><time>2026-04-17T13:20:37.999Z</time></trkpt><trkpt lat="43.495778615561335" lon="10.378470050423447"><ele>241.0</ele><time>2026-04-17T13:20:38.999Z</time></trkpt><trkpt lat="43.495805289338314" lon="10.378384916589114"><ele>243.0</ele><time>2026-04-17T13:20:39.999Z</time></trkpt><trkpt lat="43.495891735038356" lon="10.378299470756515"><ele>245.0</ele><time>2026-04-17T13:20:41.999Z</time></trkpt><trkpt lat="43.49600399714759" lon="10.378246235529975"><ele>247.0</ele><time>2026-04-17T13:20:43.999Z</time></trkpt><trkpt lat="43.49607509849053" lon="10.378243264795767"><ele>249.0</ele><time>2026-04-17T13:20:44.999Z</time></trkpt><trkpt lat="43.49615886336975" lon="10.378255259839158"><ele>249.0</ele><time>2026-04-17T13:20:45.999Z</time></trkpt><trkpt lat="43.49624484176011" lon="10.378280872699756"><ele>249.0</ele><time>2026-04-17T13:20:46.999Z</time></trkpt><trkpt lat="43.49631860803511" lon="10.378320680654342"><ele>249.0</ele><time>2026-04-17T13:20:47.999Z</time></trkpt><trkpt lat="43.4963832367499" lon="10.378359449518108"><ele>249.0</ele><time>2026-04-17T13:20:48.999Z</time></trkpt><trkpt lat="43.49645781569827" lon="10.378392223371453"><ele>249.0</ele><time>2026-04-17T13:20:49.999Z</time></trkpt><trkpt lat="43.49652289220529" lon="10.37842437642008"><ele>249.0</ele><time>2026-04-17T13:20:50.999Z</time></trkpt><trkpt lat="43.4965931459798" lon="10.378482957046145"><ele>249.5</ele><time>2026-04-17T13:20:51.999Z</time></trkpt><trkpt lat="43.49665984470858" lon="10.378552470332355"><ele>250.0</ele><time>2026-04-17T13:20:52.999Z</time></trkpt><trkpt lat="43.49672113226854" lon="10.37862419355907"><ele>250.5</ele><time>2026-04-17T13:20:53.999Z</time></trkpt><trkpt lat="43.49678006522035" lon="10.378698414042695"><ele>251.0</ele><time>2026-04-17T13:20:54.999Z</time></trkpt><trkpt lat="43.49682688201815" lon="10.378760106510011"><ele>251.5</ele><time>2026-04-17T13:20:55.999Z</time></trkpt><trkpt lat="43.4968865180445" lon="10.378817266211358"><ele>252.0</ele><time>2026-04-17T13:20:57.999Z</time></trkpt><trkpt lat="43.49693586839672" lon="10.378901171396132"><ele>252.16666666666666</ele><time>2026-04-17T13:20:59.999Z</time></trkpt><trkpt lat="43.497009059610946" lon="10.379005938942807"><ele>252.33333333333331</ele><time>2026-04-17T13:21:01.999Z</time></trkpt><trkpt lat="43.497049428238114" lon="10.37908533961334"><ele>252.5</ele><time>2026-04-17T13:21:03.999Z</time></trkpt><trkpt lat="43.49709726431493" lon="10.379171965198552"><ele>252.66666666666666</ele><time>2026-04-17T13:21:05.999Z</time></trkpt><trkpt lat="43.497133878347285" lon="10.379291621483107"><ele>252.83333333333331</ele><time>2026-04-17T13:21:07.999Z</time></trkpt><trkpt lat="43.49716401488684" lon="10.379393755068813"><ele>253.0</ele><time>2026-04-17T13:21:08.999Z</time></trkpt><trkpt lat="43.4971923166125" lon="10.379477319856974"><ele>252.99999999999997</ele><time>2026-04-17T13:21:09.999Z</time></trkpt><trkpt lat="43.49722445885728" lon="10.379553277470471"><ele>253.0</ele><time>2026-04-17T13:21:11.999Z</time></trkpt><trkpt lat="43.49728660252818" lon="10.379605408144505"><ele>253.0</ele><time>2026-04-17T13:21:13.999Z</time></trkpt><trkpt lat="43.49738991019607" lon="10.37966242236429"><ele>253.0</ele><time>2026-04-17T13:21:15.999Z</time></trkpt><trkpt lat="43.497448873864556" lon="10.379708480234516"><ele>252.99999999999997</ele><time>2026-04-17T13:21:16.999Z</time></trkpt><trkpt lat="43.49754466732173" lon="10.37980045429253"><ele>253.0</ele><time>2026-04-17T13:21:18.999Z</time></trkpt><trkpt lat="43.497631296358286" lon="10.379909937722443"><ele>254.60000000000002</ele><time>2026-04-17T13:21:20.999Z</time></trkpt><trkpt lat="43.49772278681018" lon="10.38001935381281"><ele>256.20000000000005</ele><time>2026-04-17T13:21:23Z</time></trkpt><trkpt lat="43.49781130059446" lon="10.380133704625248"><ele>257.8</ele><time>2026-04-17T13:21:25Z</time></trkpt><trkpt lat="43.49789021577265" lon="10.38024313847888"><ele>259.40000000000003</ele><time>2026-04-17T13:21:27Z</time></trkpt><trkpt lat="43.497952927033865" lon="10.380321835050857"><ele>261.0</ele><time>2026-04-17T13:21:29Z</time></trkpt><trkpt lat="43.49801441821024" lon="10.380374501788255"><ele>261.0</ele><time>2026-04-17T13:21:31Z</time></trkpt><trkpt lat="43.49808789476402" lon="10.380386216304792"><ele>261.0</ele><time>2026-04-17T13:21:33Z</time></trkpt><trkpt lat="43.498181113310864" lon="10.380344349776632"><ele>261.0</ele><time>2026-04-17T13:21:35Z</time></trkpt><trkpt lat="43.49824678411594" lon="10.38030735926722"><ele>261.0</ele><time>2026-04-17T13:21:36Z</time></trkpt><trkpt lat="43.49831986289528" lon="10.380268245997234"><ele>261.0</ele><time>2026-04-17T13:21:37Z</time></trkpt><trkpt lat="43.498387392323416" lon="10.380240000367062"><ele>261.0</ele><time>2026-04-17T13:21:38Z</time></trkpt><trkpt lat="43.49845494786885" lon="10.380218341701443"><ele>261.0</ele><time>2026-04-17T13:21:39Z</time></trkpt><trkpt lat="43.498524012641994" lon="10.380188594008262"><ele>261.0</ele><time>2026-04-17T13:21:40Z</time></trkpt><trkpt lat="43.49859959044435" lon="10.38016830563112"><ele>261.0</ele><time>2026-04-17T13:21:41Z</time></trkpt><trkpt lat="43.498675211450646" lon="10.380154943389817"><ele>261.0</ele><time>2026-04-17T13:21:42Z</time></trkpt><trkpt lat="43.49874726339833" lon="10.380153562693762"><ele>261.0</ele><time>2026-04-17T13:21:43Z</time></trkpt><trkpt lat="43.498822259243596" lon="10.380163757228573"><ele>261.0</ele><time>2026-04-17T13:21:44Z</time></trkpt><trkpt lat="43.49889955385775" lon="10.380160929775894"><ele>261.1666666666667</ele><time>2026-04-17T13:21:45Z</time></trkpt><trkpt lat="43.49897711585563" lon="10.380159421988585"><ele>261.3333333333333</ele><time>2026-04-17T13:21:46Z</time></trkpt><trkpt lat="43.49905911141784" lon="10.380166095197142"><ele>261.5</ele><time>2026-04-17T13:21:47Z</time></trkpt><trkpt lat="43.499152750285695" lon="10.380191042598225"><ele>261.66666666666663</ele><time>2026-04-17T13:21:48Z</time></trkpt><trkpt lat="43.499227181417865" lon="10.380223620412405"><ele>261.8333333333333</ele><time>2026-04-17T13:21:49Z</time></trkpt><trkpt lat="43.49929828097929" lon="10.380241860677854"><ele>262.0</ele><time>2026-04-17T13:21:50Z</time></trkpt><trkpt lat="43.49940970021642" lon="10.380233348996363"><ele>262.0</ele><time>2026-04-17T13:21:52Z</time></trkpt><trkpt lat="43.499488741857164" lon="10.38020868873974"><ele>262.0</ele><time>2026-04-17T13:21:54Z</time></trkpt><trkpt lat="43.49954290672449" lon="10.380282565553303"><ele>262.0</ele><time>2026-04-17T13:21:57Z</time></trkpt><trkpt lat="43.499575563624695" lon="10.380375197049126"><ele>262.0</ele><time>2026-04-17T13:21:59Z</time></trkpt><trkpt lat="43.49958880742456" lon="10.380496467117467"><ele>262.0</ele><time>2026-04-17T13:22:01Z</time></trkpt><trkpt lat="43.499613251943025" lon="10.380628422838978"><ele>262.0</ele><time>2026-04-17T13:22:03Z</time></trkpt><trkpt lat="43.49965366010154" lon="10.380761022754676"><ele>265.4</ele><time>2026-04-17T13:22:05Z</time></trkpt><trkpt lat="43.49970062856245" lon="10.380915618047455"><ele>268.79999999999995</ele><time>2026-04-17T13:22:07Z</time></trkpt><trkpt lat="43.49973932850381" lon="10.381031478988168"><ele>272.2</ele><time>2026-04-17T13:22:09Z</time></trkpt><trkpt lat="43.499796029400194" lon="10.381140238362853"><ele>275.59999999999997</ele><time>2026-04-17T13:22:11Z</time></trkpt><trkpt lat="43.49986625213055" lon="10.381279182945788"><ele>279.0</ele><time>2026-04-17T13:22:12.999Z</time></trkpt><trkpt lat="43.49990648869102" lon="10.381360468773458"><ele>279.1428571428571</ele><time>2026-04-17T13:22:13.999Z</time></trkpt><trkpt lat="43.49994536257779" lon="10.381447732731086"><ele>279.2857142857143</ele><time>2026-04-17T13:22:14.999Z</time></trkpt><trkpt lat="43.499973563777424" lon="10.381534445313077"><ele>279.42857142857144</ele><time>2026-04-17T13:22:15.999Z</time></trkpt><trkpt lat="43.49999855131288" lon="10.381627796111596"><ele>279.57142857142856</ele><time>2026-04-17T13:22:16.999Z</time></trkpt><trkpt lat="43.50001427830122" lon="10.381731819402011"><ele>279.7142857142857</ele><time>2026-04-17T13:22:17.999Z</time></trkpt><trkpt lat="43.50002202245831" lon="10.381830833914"><ele>279.85714285714283</ele><time>2026-04-17T13:22:18.999Z</time></trkpt><trkpt lat="43.5000169652253" lon="10.381929514560959"><ele>280.0</ele><time>2026-04-17T13:22:19.999Z</time></trkpt><trkpt lat="43.500016926086985" lon="10.382029950819437"><ele>280.0</ele><time>2026-04-17T13:22:20.999Z</time></trkpt><trkpt lat="43.5000177777667" lon="10.382140371288406"><ele>280.0</ele><time>2026-04-17T13:22:21.999Z</time></trkpt><trkpt lat="43.50001443661339" lon="10.382230467105291"><ele>280.0</ele><time>2026-04-17T13:22:22.999Z</time></trkpt><trkpt lat="43.50000564237841" lon="10.38232527853514"><ele>280.0</ele><time>2026-04-17T13:22:23.999Z</time></trkpt><trkpt lat="43.50000241570172" lon="10.382419637194843"><ele>280.0</ele><time>2026-04-17T13:22:24.999Z</time></trkpt><trkpt lat="43.499996671485945" lon="10.382534659246778"><ele>280.0</ele><time>2026-04-17T13:22:25.999Z</time></trkpt><trkpt lat="43.499996636201026" lon="10.382686466407803"><ele>280.4</ele><time>2026-04-17T13:22:27.999Z</time></trkpt><trkpt lat="43.49997808355471" lon="10.382847141869956"><ele>280.8</ele><time>2026-04-17T13:22:29.999Z</time></trkpt><trkpt lat="43.49994342798563" lon="10.382977973724374"><ele>281.2</ele><time>2026-04-17T13:22:31.999Z</time></trkpt><trkpt lat="43.49986855776668" lon="10.383070756212085"><ele>281.6</ele><time>2026-04-17T13:22:33.999Z</time></trkpt><trkpt lat="43.499753184856736" lon="10.383078676366429"><ele>282.0</ele><time>2026-04-17T13:22:35.999Z</time></trkpt><trkpt lat="43.499682426071686" lon="10.38304968931778"><ele>282.0</ele><time>2026-04-17T13:22:36.999Z</time></trkpt><trkpt lat="43.49961386976033" lon="10.383011505151865"><ele>282.0</ele><time>2026-04-17T13:22:37.999Z</time></trkpt><trkpt lat="43.49955326646913" lon="10.382968781775007"><ele>282.0</ele><time>2026-04-17T13:22:38.999Z</time></trkpt><trkpt lat="43.49945428579181" lon="10.382891623854123"><ele>282.0</ele><time>2026-04-17T13:22:40.999Z</time></trkpt><trkpt lat="43.49933894937807" lon="10.382874182863963"><ele>282.0</ele><time>2026-04-17T13:22:42.999Z</time></trkpt><trkpt lat="43.49927211267936" lon="10.382885615426357"><ele>282.0</ele><time>2026-04-17T13:22:43.999Z</time></trkpt><trkpt lat="43.499204580525515" lon="10.3828991836582"><ele>283.5</ele><time>2026-04-17T13:22:44.999Z</time></trkpt><trkpt lat="43.499082196959364" lon="10.382916561021233"><ele>285.0</ele><time>2026-04-17T13:22:46.999Z</time></trkpt><trkpt lat="43.49901115672964" lon="10.38291628442558"><ele>286.5</ele><time>2026-04-17T13:22:47.999Z</time></trkpt><trkpt lat="43.4989393252342" lon="10.382916957704866"><ele>288.0</ele><time>2026-04-17T13:22:48.999Z</time></trkpt><trkpt lat="43.498858647600706" lon="10.382913679586386"><ele>289.5</ele><time>2026-04-17T13:22:50Z</time></trkpt><trkpt lat="43.49878885446844" lon="10.382915443340703"><ele>291.0</ele><time>2026-04-17T13:22:51Z</time></trkpt><trkpt lat="43.49867083402114" lon="10.382923279320714"><ele>293.0</ele><time>2026-04-17T13:22:53Z</time></trkpt><trkpt lat="43.49854791502902" lon="10.38288861158401"><ele>295.0</ele><time>2026-04-17T13:22:55Z</time></trkpt><trkpt lat="43.4984815170501" lon="10.382860632263506"><ele>297.0</ele><time>2026-04-17T13:22:56Z</time></trkpt><trkpt lat="43.49841720663994" lon="10.382824992725357"><ele>299.0</ele><time>2026-04-17T13:22:57Z</time></trkpt><trkpt lat="43.49835575366065" lon="10.382791194043353"><ele>301.0</ele><time>2026-04-17T13:22:58Z</time></trkpt><trkpt lat="43.49825997398567" lon="10.382738334853155"><ele>303.0</ele><time>2026-04-17T13:23:00Z</time></trkpt><trkpt lat="43.49817007820722" lon="10.38273238468741"><ele>303.0</ele><time>2026-04-17T13:23:02Z</time></trkpt><trkpt lat="43.498072624785486" lon="10.382754296246107"><ele>303.0</ele><time>2026-04-17T13:23:04Z</time></trkpt><trkpt lat="43.497966785620676" lon="10.382800906233545"><ele>303.0</ele><time>2026-04-17T13:23:06Z</time></trkpt><trkpt lat="43.497845420611505" lon="10.382861311212283"><ele>303.0</ele><time>2026-04-17T13:23:08Z</time></trkpt><trkpt lat="43.49777377590604" lon="10.38289625902096"><ele>303.0</ele><time>2026-04-17T13:23:09Z</time></trkpt><trkpt lat="43.49770027972553" lon="10.382923238256938"><ele>303.2</ele><time>2026-04-17T13:23:10Z</time></trkpt><trkpt lat="43.497630739268416" lon="10.382953963551"><ele>303.4</ele><time>2026-04-17T13:23:11Z</time></trkpt><trkpt lat="43.497569880295956" lon="10.38297851640196"><ele>303.59999999999997</ele><time>2026-04-17T13:23:12Z</time></trkpt><trkpt lat="43.497467883100924" lon="10.383071881184753"><ele>303.8</ele><time>2026-04-17T13:23:14Z</time></trkpt><trkpt lat="43.49740554492627" lon="10.383191880081403"><ele>304.0</ele><time>2026-04-17T13:23:16Z</time></trkpt><trkpt lat="43.49736636950648" lon="10.383340592078733"><ele>306.16666666666663</ele><time>2026-04-17T13:23:18Z</time></trkpt><trkpt lat="43.49735253294875" lon="10.383436526203669"><ele>308.3333333333333</ele><time>2026-04-17T13:23:19Z</time></trkpt><trkpt lat="43.49733918503091" lon="10.383540105345867"><ele>310.5</ele><time>2026-04-17T13:23:20Z</time></trkpt><trkpt lat="43.497324188108635" lon="10.383644206002643"><ele>312.6666666666667</ele><time>2026-04-17T13:23:21Z</time></trkpt><trkpt lat="43.49731846954992" lon="10.383735766625364"><ele>314.83333333333337</ele><time>2026-04-17T13:23:22Z</time></trkpt><trkpt lat="43.497314445596594" lon="10.38385941955449"><ele>317.0</ele><time>2026-04-17T13:23:24Z</time></trkpt><trkpt lat="43.49732753225318" lon="10.383963036259173"><ele>317.83333333333337</ele><time>2026-04-17T13:23:27Z</time></trkpt><trkpt lat="43.49735011705889" lon="10.384066901519454"><ele>318.6666666666667</ele><time>2026-04-17T13:23:29Z</time></trkpt><trkpt lat="43.49733495070618" lon="10.384199681580402"><ele>319.5</ele><time>2026-04-17T13:23:31Z</time></trkpt><trkpt lat="43.497337705496896" lon="10.384294435261104"><ele>320.3333333333333</ele><time>2026-04-17T13:23:33Z</time></trkpt><trkpt lat="43.49735492140252" lon="10.38442828972827"><ele>321.16666666666663</ele><time>2026-04-17T13:23:35Z</time></trkpt><trkpt lat="43.49734056445364" lon="10.384519406620633"><ele>322.0</ele><time>2026-04-17T13:23:37Z</time></trkpt><trkpt lat="43.49732575557468" lon="10.384665019580446"><ele>321.75</ele><time>2026-04-17T13:23:40Z</time></trkpt><trkpt lat="43.49727838547105" lon="10.384831051860886"><ele>321.5</ele><time>2026-04-17T13:23:42Z</time></trkpt><trkpt lat="43.497233314319544" lon="10.384952852506485"><ele>321.25</ele><time>2026-04-17T13:23:43Z</time></trkpt><trkpt lat="43.49717507801042" lon="10.38508167601344"><ele>321.0</ele><time>2026-04-17T13:23:44Z</time></trkpt><trkpt lat="43.49710693178641" lon="10.385222555574643"><ele>321.20000000000005</ele><time>2026-04-17T13:23:45Z</time></trkpt><trkpt lat="43.497042406461986" lon="10.385344967011514"><ele>321.40000000000003</ele><time>2026-04-17T13:23:46Z</time></trkpt><trkpt lat="43.496980127654616" lon="10.385457803337593"><ele>321.6</ele><time>2026-04-17T13:23:47Z</time></trkpt><trkpt lat="43.49692698665535" lon="10.385556076070163"><ele>321.8</ele><time>2026-04-17T13:23:48Z</time></trkpt><trkpt lat="43.49687286950829" lon="10.38563823868684"><ele>322.0</ele><time>2026-04-17T13:23:49Z</time></trkpt><trkpt lat="43.49681539965282" lon="10.385717634649845"><ele>322.0</ele><time>2026-04-17T13:23:50Z</time></trkpt><trkpt lat="43.49675522949008" lon="10.385791112244332"><ele>322.0</ele><time>2026-04-17T13:23:51Z</time></trkpt><trkpt lat="43.49669671331795" lon="10.385868524768917"><ele>322.0</ele><time>2026-04-17T13:23:52Z</time></trkpt><trkpt lat="43.49664370597485" lon="10.385945836619612"><ele>322.0</ele><time>2026-04-17T13:23:53Z</time></trkpt><trkpt lat="43.49659126226601" lon="10.386007645588704"><ele>322.0</ele><time>2026-04-17T13:23:54Z</time></trkpt><trkpt lat="43.496533352752365" lon="10.386068917752848"><ele>322.0</ele><time>2026-04-17T13:23:55Z</time></trkpt><trkpt lat="43.49647956587265" lon="10.386140317215903"><ele>322.0</ele><time>2026-04-17T13:23:56Z</time></trkpt><trkpt lat="43.49642746779458" lon="10.386232875741051"><ele>322.0</ele><time>2026-04-17T13:23:57Z</time></trkpt><trkpt lat="43.4963818234701" lon="10.386334000317248"><ele>322.0</ele><time>2026-04-17T13:23:58Z</time></trkpt><trkpt lat="43.49635051080209" lon="10.38642367977374"><ele>322.0</ele><time>2026-04-17T13:23:59Z</time></trkpt><trkpt lat="43.49629512365158" lon="10.386574932287557"><ele>322.0</ele><time>2026-04-17T13:24:01Z</time></trkpt><trkpt lat="43.4962627130471" lon="10.386664748888732"><ele>322.0</ele><time>2026-04-17T13:24:02Z</time></trkpt><trkpt lat="43.496231359090906" lon="10.38675386900286"><ele>322.8333333333333</ele><time>2026-04-17T13:24:03Z</time></trkpt><trkpt lat="43.49618895954429" lon="10.386836906575216"><ele>323.66666666666663</ele><time>2026-04-17T13:24:04Z</time></trkpt><trkpt lat="43.49613859581065" lon="10.386928833933785"><ele>324.5</ele><time>2026-04-17T13:24:05Z</time></trkpt><trkpt lat="43.49608960845605" lon="10.387008249483328"><ele>325.3333333333333</ele><time>2026-04-17T13:24:06Z</time></trkpt><trkpt lat="43.4960402706735" lon="10.387080508826006"><ele>326.1666666666667</ele><time>2026-04-17T13:24:07Z</time></trkpt><trkpt lat="43.49597789709646" lon="10.387177230425953"><ele>327.0</ele><time>2026-04-17T13:24:08Z</time></trkpt><trkpt lat="43.495915375553295" lon="10.38726715173496"><ele>327.0</ele><time>2026-04-17T13:24:09Z</time></trkpt><trkpt lat="43.495851014368355" lon="10.387366981183487"><ele>327.0</ele><time>2026-04-17T13:24:10Z</time></trkpt><trkpt lat="43.495787190093914" lon="10.387476258120483"><ele>327.0</ele><time>2026-04-17T13:24:11Z</time></trkpt><trkpt lat="43.495729317384104" lon="10.3875863156367"><ele>327.0</ele><time>2026-04-17T13:24:12Z</time></trkpt><trkpt lat="43.49569056754626" lon="10.38769515593056"><ele>327.0</ele><time>2026-04-17T13:24:13Z</time></trkpt><trkpt lat="43.49564221729175" lon="10.387813751799536"><ele>327.0</ele><time>2026-04-17T13:24:14Z</time></trkpt><trkpt lat="43.49559356230923" lon="10.387934249740693"><ele>327.0</ele><time>2026-04-17T13:24:15Z</time></trkpt><trkpt lat="43.495545011770524" lon="10.388041037411737"><ele>327.0</ele><time>2026-04-17T13:24:16Z</time></trkpt><trkpt lat="43.49547368672115" lon="10.388123202659282"><ele>327.0</ele><time>2026-04-17T13:24:17Z</time></trkpt><trkpt lat="43.495413631670345" lon="10.388205438283757"><ele>327.0</ele><time>2026-04-17T13:24:18Z</time></trkpt><trkpt lat="43.49536362825571" lon="10.388280088324342"><ele>327.0</ele><time>2026-04-17T13:24:19Z</time></trkpt><trkpt lat="43.49531541709535" lon="10.388370108103858"><ele>327.3333333333333</ele><time>2026-04-17T13:24:20Z</time></trkpt><trkpt lat="43.49527306053525" lon="10.38846398622695"><ele>327.6666666666667</ele><time>2026-04-17T13:24:21Z</time></trkpt><trkpt lat="43.495234297857515" lon="10.388556460010799"><ele>328.0</ele><time>2026-04-17T13:24:22Z</time></trkpt><trkpt lat="43.49520576323336" lon="10.388646184629362"><ele>328.33333333333337</ele><time>2026-04-17T13:24:23Z</time></trkpt><trkpt lat="43.495178855553945" lon="10.388749634186262"><ele>328.6666666666667</ele><time>2026-04-17T13:24:24Z</time></trkpt><trkpt lat="43.49514897520668" lon="10.388849225978205"><ele>329.0</ele><time>2026-04-17T13:24:25Z</time></trkpt><trkpt lat="43.49510146396283" lon="10.388947151760057"><ele>329.0</ele><time>2026-04-17T13:24:26Z</time></trkpt><trkpt lat="43.49504846055657" lon="10.389046898865715"><ele>329.0</ele><time>2026-04-17T13:24:27Z</time></trkpt><trkpt lat="43.49499752187501" lon="10.389136952993072"><ele>329.0</ele><time>2026-04-17T13:24:28Z</time></trkpt><trkpt lat="43.494946517249616" lon="10.389229024523358"><ele>329.0</ele><time>2026-04-17T13:24:29Z</time></trkpt><trkpt lat="43.49489848343132" lon="10.389316266516978"><ele>329.0</ele><time>2026-04-17T13:24:30Z</time></trkpt><trkpt lat="43.49485625474184" lon="10.38940161488976"><ele>329.0</ele><time>2026-04-17T13:24:31Z</time></trkpt><trkpt lat="43.494810099802876" lon="10.38948173285377"><ele>329.0</ele><time>2026-04-17T13:24:32Z</time></trkpt><trkpt lat="43.49476692740656" lon="10.389562606077266"><ele>329.0</ele><time>2026-04-17T13:24:33Z</time></trkpt><trkpt lat="43.49471961269413" lon="10.389639785627828"><ele>329.0</ele><time>2026-04-17T13:24:34Z</time></trkpt><trkpt lat="43.494671414383085" lon="10.389711956140921"><ele>329.0</ele><time>2026-04-17T13:24:35Z</time></trkpt><trkpt lat="43.494622662570016" lon="10.389788083566069"><ele>329.0</ele><time>2026-04-17T13:24:36Z</time></trkpt><trkpt lat="43.494580840255026" lon="10.389860460808556"><ele>329.0</ele><time>2026-04-17T13:24:37Z</time></trkpt><trkpt lat="43.49454200122883" lon="10.389929594231518"><ele>329.0</ele><time>2026-04-17T13:24:38Z</time></trkpt><trkpt lat="43.494480152666675" lon="10.390054399958558"><ele>327.4</ele><time>2026-04-17T13:24:40Z</time></trkpt><trkpt lat="43.494431056707306" lon="10.390166215719619"><ele>325.79999999999995</ele><time>2026-04-17T13:24:42Z</time></trkpt><trkpt lat="43.49436792693932" lon="10.390295064864583"><ele>324.20000000000005</ele><time>2026-04-17T13:24:44Z</time></trkpt><trkpt lat="43.494305242296655" lon="10.39044442896992"><ele>322.6</ele><time>2026-04-17T13:24:46Z</time></trkpt><trkpt lat="43.494262789926424" lon="10.390533379075272"><ele>321.0</ele><time>2026-04-17T13:24:47Z</time></trkpt><trkpt lat="43.49421567767801" lon="10.390617978611468"><ele>320.8333333333333</ele><time>2026-04-17T13:24:48Z</time></trkpt><trkpt lat="43.494174095439355" lon="10.390691078615564"><ele>320.6666666666667</ele><time>2026-04-17T13:24:49Z</time></trkpt><trkpt lat="43.49412697987277" lon="10.39078530681952"><ele>320.5</ele><time>2026-04-17T13:24:50Z</time></trkpt><trkpt lat="43.49407390691249" lon="10.390891609121036"><ele>320.33333333333337</ele><time>2026-04-17T13:24:51Z</time></trkpt><trkpt lat="43.49402273905501" lon="10.391003791439385"><ele>320.1666666666667</ele><time>2026-04-17T13:24:52Z</time></trkpt><trkpt lat="43.493964896346256" lon="10.391124273481713"><ele>320.0</ele><time>2026-04-17T13:24:53Z</time></trkpt><trkpt lat="43.49390490370064" lon="10.391247123392812"><ele>319.33333333333337</ele><time>2026-04-17T13:24:54Z</time></trkpt><trkpt lat="43.49385299170672" lon="10.391345495396548"><ele>318.6666666666667</ele><time>2026-04-17T13:24:55Z</time></trkpt><trkpt lat="43.493804937742404" lon="10.39144193060056"><ele>318.0</ele><time>2026-04-17T13:24:56Z</time></trkpt><trkpt lat="43.49376301751875" lon="10.391534189802188"><ele>317.3333333333333</ele><time>2026-04-17T13:24:57Z</time></trkpt><trkpt lat="43.49372274616141" lon="10.391616907929686"><ele>316.66666666666663</ele><time>2026-04-17T13:24:58Z</time></trkpt><trkpt lat="43.4936770427308" lon="10.391712364041169"><ele>316.0</ele><time>2026-04-17T13:25:00Z</time></trkpt><trkpt lat="43.49361507242029" lon="10.391801182429347"><ele>315.3333333333333</ele><time>2026-04-17T13:28:19.001Z</time></trkpt><trkpt lat="43.49355297822119" lon="10.391882728993204"><ele>314.66666666666663</ele><time>2026-04-17T13:28:22.001Z</time></trkpt><trkpt lat="43.493488032467425" lon="10.391957928304883"><ele>314.0</ele><time>2026-04-17T13:28:25.001Z</time></trkpt><trkpt lat="43.49343956636155" lon="10.392014357549133"><ele>313.3333333333333</ele><time>2026-04-17T13:28:27.001Z</time></trkpt><trkpt lat="43.493393643345144" lon="10.392087532207052"><ele>312.6666666666667</ele><time>2026-04-17T13:28:29.001Z</time></trkpt><trkpt lat="43.49334463507774" lon="10.392173502016792"><ele>312.0</ele><time>2026-04-17T13:28:31Z</time></trkpt><trkpt lat="43.49329576484001" lon="10.39225397872974"><ele>311.6666666666667</ele><time>2026-04-17T13:28:33Z</time></trkpt><trkpt lat="43.49324522018315" lon="10.392346130495266"><ele>311.3333333333333</ele><time>2026-04-17T13:28:35Z</time></trkpt><trkpt lat="43.4931924187676" lon="10.392436891269346"><ele>311.0</ele><time>2026-04-17T13:28:37Z</time></trkpt><trkpt lat="43.49313867833587" lon="10.39252047918666"><ele>310.66666666666663</ele><time>2026-04-17T13:28:39Z</time></trkpt><trkpt lat="43.49307759034827" lon="10.392605657072677"><ele>310.3333333333333</ele><time>2026-04-17T13:28:41Z</time></trkpt><trkpt lat="43.49300630907633" lon="10.392699821886307"><ele>310.0</ele><time>2026-04-17T13:28:43Z</time></trkpt><trkpt lat="43.49292637329067" lon="10.39280788182333"><ele>309.0</ele><time>2026-04-17T13:28:45Z</time></trkpt><trkpt lat="43.492877820262855" lon="10.392884680808256"><ele>308.0</ele><time>2026-04-17T13:28:46Z</time></trkpt><trkpt lat="43.492812510812705" lon="10.392988177676397"><ele>307.0</ele><time>2026-04-17T13:28:47Z</time></trkpt><trkpt lat="43.49274108041748" lon="10.393099757733697"><ele>306.0</ele><time>2026-04-17T13:28:48Z</time></trkpt><trkpt lat="43.49266682518191" lon="10.393225004883575"><ele>305.0</ele><time>2026-04-17T13:28:49Z</time></trkpt><trkpt lat="43.492583554486885" lon="10.39335915472915"><ele>305.0</ele><time>2026-04-17T13:28:50Z</time></trkpt><trkpt lat="43.49250895847914" lon="10.393477715013201"><ele>305.0</ele><time>2026-04-17T13:28:51Z</time></trkpt><trkpt lat="43.49243741989782" lon="10.393565841161143"><ele>305.0</ele><time>2026-04-17T13:28:52Z</time></trkpt><trkpt lat="43.49236931454026" lon="10.393664783583992"><ele>305.0</ele><time>2026-04-17T13:28:53Z</time></trkpt><trkpt lat="43.492302183546435" lon="10.393758070587058"><ele>305.0</ele><time>2026-04-17T13:28:54Z</time></trkpt><trkpt lat="43.492242677445915" lon="10.393850190078835"><ele>304.5</ele><time>2026-04-17T13:28:55Z</time></trkpt><trkpt lat="43.49218477258477" lon="10.393938911273574"><ele>304.0</ele><time>2026-04-17T13:28:56Z</time></trkpt><trkpt lat="43.49212649856251" lon="10.39403133302715"><ele>303.5</ele><time>2026-04-17T13:28:57Z</time></trkpt><trkpt lat="43.49208066360801" lon="10.394110310170674"><ele>303.0</ele><time>2026-04-17T13:28:58Z</time></trkpt><trkpt lat="43.49202640315617" lon="10.394210090206354"><ele>302.5</ele><time>2026-04-17T13:29:00Z</time></trkpt><trkpt lat="43.49197469013019" lon="10.394306101379481"><ele>302.0</ele><time>2026-04-17T13:29:02Z</time></trkpt><trkpt lat="43.49192727181913" lon="10.394410154987897"><ele>302.0</ele><time>2026-04-17T13:29:04Z</time></trkpt><trkpt lat="43.49189457236461" lon="10.394527722081406"><ele>302.0</ele><time>2026-04-17T13:29:06Z</time></trkpt><trkpt lat="43.49189962088586" lon="10.394666169525154"><ele>302.0</ele><time>2026-04-17T13:29:08Z</time></trkpt><trkpt lat="43.49193605919233" lon="10.39476517753885"><ele>302.0</ele><time>2026-04-17T13:29:10Z</time></trkpt><trkpt lat="43.491975017182654" lon="10.394880783136992"><ele>302.0</ele><time>2026-04-17T13:29:12Z</time></trkpt><trkpt lat="43.49200741704142" lon="10.395002175188012"><ele>301.83333333333337</ele><time>2026-04-17T13:29:14Z</time></trkpt><trkpt lat="43.49204376870419" lon="10.39512350936565"><ele>301.6666666666667</ele><time>2026-04-17T13:29:16Z</time></trkpt><trkpt lat="43.49208038429698" lon="10.395233662367133"><ele>301.5</ele><time>2026-04-17T13:29:18Z</time></trkpt><trkpt lat="43.4920981813216" lon="10.395325374796371"><ele>301.3333333333333</ele><time>2026-04-17T13:29:20Z</time></trkpt><trkpt lat="43.492107077594454" lon="10.395439654105797"><ele>301.16666666666663</ele><time>2026-04-17T13:29:24Z</time></trkpt><trkpt lat="43.49207372566342" lon="10.395555596591512"><ele>301.0</ele><time>2026-04-17T13:29:27Z</time></trkpt><trkpt lat="43.49204263853775" lon="10.395668802856614"><ele>301.3333333333333</ele><time>2026-04-17T13:29:30Z</time></trkpt><trkpt lat="43.491988017436604" lon="10.395793762721631"><ele>301.66666666666663</ele><time>2026-04-17T13:29:33Z</time></trkpt><trkpt lat="43.49200598553496" lon="10.395932499814133"><ele>302.0</ele><time>2026-04-17T13:29:35Z</time></trkpt><trkpt lat="43.49204532911139" lon="10.396031236965667"><ele>302.3333333333333</ele><time>2026-04-17T13:29:37Z</time></trkpt><trkpt lat="43.49209186961902" lon="10.396115863818673"><ele>302.6666666666667</ele><time>2026-04-17T13:29:40Z</time></trkpt><trkpt lat="43.49213089503451" lon="10.396204152374489"><ele>303.0</ele><time>2026-04-17T13:29:44Z</time></trkpt><trkpt lat="43.49218483782782" lon="10.396300645424096"><ele>298.0</ele><time>2026-04-17T13:29:47Z</time></trkpt><trkpt lat="43.49222694524265" lon="10.396399138664659"><ele>293.0</ele><time>2026-04-17T13:29:49Z</time></trkpt><trkpt lat="43.492271475065984" lon="10.396521914391263"><ele>288.0</ele><time>2026-04-17T13:29:51Z</time></trkpt><trkpt lat="43.49232952830836" lon="10.396637184796571"><ele>283.0</ele><time>2026-04-17T13:29:53Z</time></trkpt><trkpt lat="43.49239602100792" lon="10.396783401739281"><ele>278.0</ele><time>2026-04-17T13:29:55Z</time></trkpt><trkpt lat="43.492457468263666" lon="10.396929901224635"><ele>278.0</ele><time>2026-04-17T13:29:57Z</time></trkpt><trkpt lat="43.492497357638605" lon="10.397013345514853"><ele>278.0</ele><time>2026-04-17T13:29:58Z</time></trkpt><trkpt lat="43.49253538068097" lon="10.39710552392654"><ele>278.0</ele><time>2026-04-17T13:29:59Z</time></trkpt><trkpt lat="43.49257408065796" lon="10.39720659936873"><ele>278.0</ele><time>2026-04-17T13:30:00Z</time></trkpt><trkpt lat="43.49261895321578" lon="10.397339370071725"><ele>278.0</ele><time>2026-04-17T13:30:01Z</time></trkpt><trkpt lat="43.492666508094324" lon="10.397499543898215"><ele>278.0</ele><time>2026-04-17T13:30:02Z</time></trkpt><trkpt lat="43.49269814957131" lon="10.397596132915256"><ele>278.0</ele><time>2026-04-17T13:30:03Z</time></trkpt><trkpt lat="43.49273550747154" lon="10.397692969013832"><ele>278.0</ele><time>2026-04-17T13:30:05Z</time></trkpt><trkpt lat="43.492764657895904" lon="10.397778264953141"><ele>278.0</ele><time>2026-04-17T13:30:07Z</time></trkpt><trkpt lat="43.49278702591255" lon="10.397897185783703"><ele>278.0</ele><time>2026-04-17T13:30:10Z</time></trkpt><trkpt lat="43.49284552454513" lon="10.397997502090838"><ele>278.0</ele><time>2026-04-17T13:30:12Z</time></trkpt><trkpt lat="43.49289826686651" lon="10.398050837497541"><ele>277.83333333333337</ele><time>2026-04-17T13:30:13Z</time></trkpt><trkpt lat="43.49296375458366" lon="10.398118235161"><ele>277.6666666666667</ele><time>2026-04-17T13:30:14Z</time></trkpt><trkpt lat="43.49301872125691" lon="10.398169289136321"><ele>277.5</ele><time>2026-04-17T13:30:15Z</time></trkpt><trkpt lat="43.493071035567425" lon="10.398232304230389"><ele>277.3333333333333</ele><time>2026-04-17T13:30:16Z</time></trkpt><trkpt lat="43.493136424565215" lon="10.398355011853445"><ele>277.16666666666663</ele><time>2026-04-17T13:30:18Z</time></trkpt><trkpt lat="43.49318320004242" lon="10.398463590564281"><ele>277.0</ele><time>2026-04-17T13:30:20Z</time></trkpt><trkpt lat="43.49323418632466" lon="10.398568494686208"><ele>277.0</ele><time>2026-04-17T13:30:22Z</time></trkpt><trkpt lat="43.49329869895126" lon="10.398632653421908"><ele>277.0</ele><time>2026-04-17T13:30:24Z</time></trkpt><trkpt lat="43.493373092026474" lon="10.39870846134611"><ele>277.0</ele><time>2026-04-17T13:30:26Z</time></trkpt><trkpt lat="43.49344093001278" lon="10.398789320227609"><ele>277.0</ele><time>2026-04-17T13:30:28Z</time></trkpt><trkpt lat="43.49350823631211" lon="10.398854710499428"><ele>277.0</ele><time>2026-04-17T13:30:30Z</time></trkpt><trkpt lat="43.4936002901059" lon="10.39890234714952"><ele>277.0</ele><time>2026-04-17T13:30:32Z</time></trkpt><trkpt lat="43.49369448174346" lon="10.39899207328274"><ele>275.6</ele><time>2026-04-17T13:30:34Z</time></trkpt><trkpt lat="43.493748480342155" lon="10.399045320232377"><ele>274.2</ele><time>2026-04-17T13:30:35Z</time></trkpt><trkpt lat="43.49381269766395" lon="10.399092616865008"><ele>272.8</ele><time>2026-04-17T13:30:36Z</time></trkpt><trkpt lat="43.493913305499596" lon="10.399155267203168"><ele>271.4</ele><time>2026-04-17T13:30:38Z</time></trkpt><trkpt lat="43.49401793353143" lon="10.39920694072372"><ele>270.0</ele><time>2026-04-17T13:30:40Z</time></trkpt><trkpt lat="43.494097153558776" lon="10.3992814060658"><ele>269.0</ele><time>2026-04-17T13:30:42Z</time></trkpt><trkpt lat="43.49417529724555" lon="10.39934556707275"><ele>268.0</ele><time>2026-04-17T13:30:44Z</time></trkpt><trkpt lat="43.49425405267479" lon="10.39940682398622"><ele>267.0</ele><time>2026-04-17T13:30:46Z</time></trkpt><trkpt lat="43.49433249442524" lon="10.399488182776803"><ele>266.0</ele><time>2026-04-17T13:30:48Z</time></trkpt><trkpt lat="43.49441105955097" lon="10.399574692077303"><ele>265.0</ele><time>2026-04-17T13:30:50Z</time></trkpt><trkpt lat="43.49449740188847" lon="10.399629584666743"><ele>263.4</ele><time>2026-04-17T13:30:52Z</time></trkpt><trkpt lat="43.49459777051356" lon="10.399660023411219"><ele>261.8</ele><time>2026-04-17T13:30:54Z</time></trkpt><trkpt lat="43.494711638621744" lon="10.399687561580903"><ele>260.2</ele><time>2026-04-17T13:30:56Z</time></trkpt><trkpt lat="43.494811781181625" lon="10.399699267269636"><ele>258.6</ele><time>2026-04-17T13:30:58Z</time></trkpt><trkpt lat="43.494908135957196" lon="10.39974119653057"><ele>257.0</ele><time>2026-04-17T13:31:00Z</time></trkpt><trkpt lat="43.495004263251225" lon="10.39978871828634"><ele>257.0</ele><time>2026-04-17T13:31:02Z</time></trkpt><trkpt lat="43.49511649688441" lon="10.399867979460746"><ele>257.0</ele><time>2026-04-17T13:31:04Z</time></trkpt><trkpt lat="43.49519382551154" lon="10.399925338217036"><ele>257.0</ele><time>2026-04-17T13:31:05Z</time></trkpt><trkpt lat="43.495264727486095" lon="10.399975198793788"><ele>257.0</ele><time>2026-04-17T13:31:06Z</time></trkpt><trkpt lat="43.49533374976583" lon="10.400014780843295"><ele>257.0</ele><time>2026-04-17T13:31:07Z</time></trkpt><trkpt lat="43.49539891942298" lon="10.400049994540554"><ele>257.0</ele><time>2026-04-17T13:31:08Z</time></trkpt><trkpt lat="43.49546165256726" lon="10.400095543732766"><ele>255.33333333333334</ele><time>2026-04-17T13:31:09Z</time></trkpt><trkpt lat="43.49552926155754" lon="10.400151584141433"><ele>253.66666666666669</ele><time>2026-04-17T13:31:10Z</time></trkpt><trkpt lat="43.49559031653674" lon="10.40020623684646"><ele>252.0</ele><time>2026-04-17T13:31:11Z</time></trkpt><trkpt lat="43.495648176859405" lon="10.40024529886986"><ele>250.33333333333331</ele><time>2026-04-17T13:31:12Z</time></trkpt><trkpt lat="43.49574703108623" lon="10.400304342745411"><ele>248.66666666666666</ele><time>2026-04-17T13:31:14Z</time></trkpt><trkpt lat="43.49580699681586" lon="10.4003603143302"><ele>247.0</ele><time>2026-04-17T13:31:17Z</time></trkpt><trkpt lat="43.49588946051011" lon="10.400423058542625"><ele>247.0</ele><time>2026-04-17T13:31:20Z</time></trkpt><trkpt lat="43.495940862248226" lon="10.40047493406667"><ele>247.0</ele><time>2026-04-17T13:31:22Z</time></trkpt><trkpt lat="43.49600128766373" lon="10.400505858038938"><ele>247.0</ele><time>2026-04-17T13:31:24Z</time></trkpt><trkpt lat="43.49607031087458" lon="10.400554148466467"><ele>247.0</ele><time>2026-04-17T13:31:26Z</time></trkpt><trkpt lat="43.496135451923905" lon="10.400612927859799"><ele>247.0</ele><time>2026-04-17T13:31:28Z</time></trkpt><trkpt lat="43.49619001090142" lon="10.40067033852133"><ele>247.0</ele><time>2026-04-17T13:31:30Z</time></trkpt><trkpt lat="43.4962592472357" lon="10.400755280652112"><ele>247.0</ele><time>2026-04-17T13:31:33Z</time></trkpt><trkpt lat="43.49632125197686" lon="10.400813823421524"><ele>245.39999999999998</ele><time>2026-04-17T13:31:35Z</time></trkpt><trkpt lat="43.49638935677761" lon="10.400882115940764"><ele>243.79999999999998</ele><time>2026-04-17T13:31:37Z</time></trkpt><trkpt lat="43.496473573908084" lon="10.400970455407956"><ele>242.2</ele><time>2026-04-17T13:31:39Z</time></trkpt><trkpt lat="43.496568921715884" lon="10.40107168168432"><ele>240.6</ele><time>2026-04-17T13:31:41Z</time></trkpt><trkpt lat="43.49665503762241" lon="10.401169651240918"><ele>239.0</ele><time>2026-04-17T13:31:43Z</time></trkpt><trkpt lat="43.49671170400916" lon="10.401263103161687"><ele>239.66666666666669</ele><time>2026-04-17T13:31:45Z</time></trkpt><trkpt lat="43.49675139625142" lon="10.401351048869817"><ele>240.33333333333334</ele><time>2026-04-17T13:31:47Z</time></trkpt><trkpt lat="43.496780888671516" lon="10.401451744420935"><ele>241.0</ele><time>2026-04-17T13:31:49Z</time></trkpt><trkpt lat="43.49681943048853" lon="10.401564130069966"><ele>241.66666666666669</ele><time>2026-04-17T13:31:51Z</time></trkpt><trkpt lat="43.496862965002855" lon="10.401703607395431"><ele>242.33333333333334</ele><time>2026-04-17T13:31:53Z</time></trkpt><trkpt lat="43.496890263799" lon="10.401792865010403"><ele>243.0</ele><time>2026-04-17T13:31:54Z</time></trkpt><trkpt lat="43.49691443263906" lon="10.401880963641908"><ele>243.0</ele><time>2026-04-17T13:31:55Z</time></trkpt><trkpt lat="43.49693974357358" lon="10.401969494885087"><ele>243.0</ele><time>2026-04-17T13:31:56Z</time></trkpt><trkpt lat="43.49696890631364" lon="10.402048975651624"><ele>243.0</ele><time>2026-04-17T13:31:57Z</time></trkpt><trkpt lat="43.49701679542015" lon="10.402168924978552"><ele>243.0</ele><time>2026-04-17T13:31:59Z</time></trkpt><trkpt lat="43.49706309087658" lon="10.402280510270456"><ele>243.0</ele><time>2026-04-17T13:32:01Z</time></trkpt><trkpt lat="43.497077599724676" lon="10.402396948396863"><ele>243.0</ele><time>2026-04-17T13:32:03Z</time></trkpt><trkpt lat="43.49709133424812" lon="10.402520137377053"><ele>240.5</ele><time>2026-04-17T13:32:05Z</time></trkpt><trkpt lat="43.497102865885196" lon="10.402647360949995"><ele>238.0</ele><time>2026-04-17T13:32:07Z</time></trkpt><trkpt lat="43.49713701843266" lon="10.402747644666901"><ele>235.5</ele><time>2026-04-17T13:32:09Z</time></trkpt><trkpt lat="43.49719303424643" lon="10.40280680909953"><ele>233.0</ele><time>2026-04-17T13:32:11Z</time></trkpt><trkpt lat="43.49728535740181" lon="10.402805973050317"><ele>230.5</ele><time>2026-04-17T13:32:13Z</time></trkpt><trkpt lat="43.49738907779928" lon="10.402775520886118"><ele>228.0</ele><time>2026-04-17T13:32:15Z</time></trkpt><trkpt lat="43.49750442494471" lon="10.40275268000256"><ele>228.0</ele><time>2026-04-17T13:32:17Z</time></trkpt><trkpt lat="43.49759287120739" lon="10.402710608772422"><ele>228.0</ele><time>2026-04-17T13:32:19Z</time></trkpt><trkpt lat="43.49770424641767" lon="10.40267246648624"><ele>228.0</ele><time>2026-04-17T13:32:21Z</time></trkpt><trkpt lat="43.49780219601061" lon="10.40265050829983"><ele>228.0</ele><time>2026-04-17T13:32:23Z</time></trkpt><trkpt lat="43.49789975343977" lon="10.402646019470446"><ele>228.0</ele><time>2026-04-17T13:32:25Z</time></trkpt><trkpt lat="43.497981599236795" lon="10.402671061246552"><ele>226.5</ele><time>2026-04-17T13:32:27Z</time></trkpt><trkpt lat="43.49806699570091" lon="10.402719147279004"><ele>225.0</ele><time>2026-04-17T13:32:29Z</time></trkpt><trkpt lat="43.49811564509203" lon="10.402784343266223"><ele>223.5</ele><time>2026-04-17T13:32:31Z</time></trkpt><trkpt lat="43.49817157577342" lon="10.40284953084742"><ele>222.0</ele><time>2026-04-17T13:32:33Z</time></trkpt><trkpt lat="43.49821679005686" lon="10.402936935940431"><ele>220.5</ele><time>2026-04-17T13:32:35Z</time></trkpt><trkpt lat="43.49824684753942" lon="10.403060731552308"><ele>219.0</ele><time>2026-04-17T13:32:37Z</time></trkpt><trkpt lat="43.49827830192767" lon="10.403217267471316"><ele>218.85714285714286</ele><time>2026-04-17T13:32:39Z</time></trkpt><trkpt lat="43.498289306374026" lon="10.40335300256432"><ele>218.7142857142857</ele><time>2026-04-17T13:32:41Z</time></trkpt><trkpt lat="43.498290690697736" lon="10.40344571474995"><ele>218.57142857142856</ele><time>2026-04-17T13:32:42Z</time></trkpt><trkpt lat="43.498285781877875" lon="10.403547203153687"><ele>218.42857142857144</ele><time>2026-04-17T13:32:43Z</time></trkpt><trkpt lat="43.49828367392239" lon="10.403637172221977"><ele>218.28571428571428</ele><time>2026-04-17T13:32:44Z</time></trkpt><trkpt lat="43.498271795571796" lon="10.403722931460944"><ele>218.14285714285714</ele><time>2026-04-17T13:32:45Z</time></trkpt><trkpt lat="43.49823800973108" lon="10.403822615836793"><ele>218.0</ele><time>2026-04-17T13:32:46Z</time></trkpt><trkpt lat="43.49819716320105" lon="10.40392365123831"><ele>218.8</ele><time>2026-04-17T13:32:47Z</time></trkpt><trkpt lat="43.49815095621705" lon="10.404013324466087"><ele>219.60000000000002</ele><time>2026-04-17T13:32:48Z</time></trkpt><trkpt lat="43.49808270951429" lon="10.404152781114794"><ele>220.39999999999998</ele><time>2026-04-17T13:32:50Z</time></trkpt><trkpt lat="43.49803229667327" lon="10.40428446122065"><ele>221.2</ele><time>2026-04-17T13:32:52Z</time></trkpt><trkpt lat="43.49797912456337" lon="10.404381635623192"><ele>222.0</ele><time>2026-04-17T13:32:54Z</time></trkpt><trkpt lat="43.497903133268515" lon="10.404461909905825"><ele>222.0</ele><time>2026-04-17T13:32:56Z</time></trkpt><trkpt lat="43.49783310905472" lon="10.404495924628346"><ele>222.0</ele><time>2026-04-17T13:32:58Z</time></trkpt><trkpt lat="43.497745344607154" lon="10.404517104853742"><ele>222.0</ele><time>2026-04-17T13:33:00Z</time></trkpt><trkpt lat="43.49767829827838" lon="10.404540203251837"><ele>222.0</ele><time>2026-04-17T13:33:01Z</time></trkpt><trkpt lat="43.49760473356457" lon="10.40458434578554"><ele>222.0</ele><time>2026-04-17T13:33:02Z</time></trkpt><trkpt lat="43.49752659042416" lon="10.40462864777948"><ele>222.0</ele><time>2026-04-17T13:33:03Z</time></trkpt><trkpt lat="43.49745441905858" lon="10.404678758874057"><ele>219.16666666666666</ele><time>2026-04-17T13:33:04Z</time></trkpt><trkpt lat="43.497381546645045" lon="10.404733744659337"><ele>216.33333333333331</ele><time>2026-04-17T13:33:05Z</time></trkpt><trkpt lat="43.49732435357358" lon="10.404783555854094"><ele>213.5</ele><time>2026-04-17T13:33:06Z</time></trkpt><trkpt lat="43.49726165292266" lon="10.404839675445457"><ele>210.66666666666666</ele><time>2026-04-17T13:33:07Z</time></trkpt><trkpt lat="43.49719852650224" lon="10.404908998441035"><ele>207.83333333333331</ele><time>2026-04-17T13:33:08Z</time></trkpt><trkpt lat="43.49712498377057" lon="10.404988546883228"><ele>205.0</ele><time>2026-04-17T13:33:09Z</time></trkpt><trkpt lat="43.49706885176733" lon="10.405055962695663"><ele>204.99999999999997</ele><time>2026-04-17T13:33:10Z</time></trkpt><trkpt lat="43.49701351312213" lon="10.405123855939216"><ele>205.0</ele><time>2026-04-17T13:33:11Z</time></trkpt><trkpt lat="43.49695101976084" lon="10.405201036568622"><ele>205.0</ele><time>2026-04-17T13:33:12Z</time></trkpt><trkpt lat="43.49687780133554" lon="10.405305980047082"><ele>205.0</ele><time>2026-04-17T13:33:13Z</time></trkpt><trkpt lat="43.496830597162585" lon="10.405377914912469"><ele>204.99999999999997</ele><time>2026-04-17T13:33:14Z</time></trkpt><trkpt lat="43.4967791741976" lon="10.405520450308256"><ele>205.0</ele><time>2026-04-17T13:33:16Z</time></trkpt><trkpt lat="43.496752763432774" lon="10.405676398756663"><ele>204.66666666666666</ele><time>2026-04-17T13:33:18Z</time></trkpt><trkpt lat="43.49675902025817" lon="10.405845353848473"><ele>204.33333333333331</ele><time>2026-04-17T13:33:20Z</time></trkpt><trkpt lat="43.49678597590392" lon="10.405931222158657"><ele>204.0</ele><time>2026-04-17T13:33:21Z</time></trkpt><trkpt lat="43.49683077921009" lon="10.406018850570119"><ele>203.66666666666669</ele><time>2026-04-17T13:33:22Z</time></trkpt><trkpt lat="43.496882428476816" lon="10.406091488283856"><ele>203.33333333333334</ele><time>2026-04-17T13:33:23Z</time></trkpt><trkpt lat="43.49694538462402" lon="10.406162295543323"><ele>203.0</ele><time>2026-04-17T13:33:24Z</time></trkpt><trkpt lat="43.49701073731039" lon="10.406245663015078"><ele>203.00000000000003</ele><time>2026-04-17T13:33:25Z</time></trkpt><trkpt lat="43.497073434199244" lon="10.406306591089937"><ele>203.0</ele><time>2026-04-17T13:33:26Z</time></trkpt><trkpt lat="43.497155076471735" lon="10.406368294043475"><ele>203.0</ele><time>2026-04-17T13:33:27Z</time></trkpt><trkpt lat="43.49721311973187" lon="10.406422294218094"><ele>203.0</ele><time>2026-04-17T13:33:28Z</time></trkpt><trkpt lat="43.49727333515536" lon="10.406463788981728"><ele>203.00000000000003</ele><time>2026-04-17T13:33:29Z</time></trkpt><trkpt lat="43.49734078481221" lon="10.406506515265958"><ele>203.0</ele><time>2026-04-17T13:33:30Z</time></trkpt><trkpt lat="43.49743191226578" lon="10.4065583033037"><ele>203.33333333333334</ele><time>2026-04-17T13:33:32Z</time></trkpt><trkpt lat="43.4975302347482" lon="10.40660434448458"><ele>203.66666666666669</ele><time>2026-04-17T13:33:35Z</time></trkpt><trkpt lat="43.497584526181285" lon="10.406657983936771"><ele>204.0</ele><time>2026-04-17T13:33:37Z</time></trkpt><trkpt lat="43.49766982321815" lon="10.406718091598405"><ele>204.33333333333331</ele><time>2026-04-17T13:33:39Z</time></trkpt><trkpt lat="43.49773803335804" lon="10.406769630533258"><ele>204.66666666666666</ele><time>2026-04-17T13:33:40Z</time></trkpt><trkpt lat="43.497795815737184" lon="10.406828670934843"><ele>205.0</ele><time>2026-04-17T13:33:42Z</time></trkpt><trkpt lat="43.4979144806329" lon="10.406938160050723"><ele>203.25</ele><time>2026-04-17T13:33:44Z</time></trkpt><trkpt lat="43.49798789829302" lon="10.407059715927359"><ele>201.5</ele><time>2026-04-17T13:33:45Z</time></trkpt><trkpt lat="43.498045118253614" lon="10.407186880420028"><ele>199.75</ele><time>2026-04-17T13:33:46Z</time></trkpt><trkpt lat="43.4981337530839" lon="10.407331990997127"><ele>198.0</ele><time>2026-04-17T13:33:48Z</time></trkpt><trkpt lat="43.498189994847436" lon="10.407469838364717"><ele>198.0</ele><time>2026-04-17T13:33:50Z</time></trkpt><trkpt lat="43.49819804516169" lon="10.407638828000774"><ele>198.0</ele><time>2026-04-17T13:33:52Z</time></trkpt><trkpt lat="43.49816118969806" lon="10.40774737957571"><ele>198.0</ele><time>2026-04-17T13:33:53Z</time></trkpt><trkpt lat="43.498110812716384" lon="10.407850148291502"><ele>198.0</ele><time>2026-04-17T13:33:54Z</time></trkpt><trkpt lat="43.49803890351812" lon="10.407961730377709"><ele>198.0</ele><time>2026-04-17T13:33:55Z</time></trkpt><trkpt lat="43.49795382059874" lon="10.40807406909768"><ele>201.5</ele><time>2026-04-17T13:33:56Z</time></trkpt><trkpt lat="43.49789448704831" lon="10.408146619328596"><ele>205.0</ele><time>2026-04-17T13:33:57Z</time></trkpt><trkpt lat="43.497849545939076" lon="10.408214624497544"><ele>208.5</ele><time>2026-04-17T13:33:58Z</time></trkpt><trkpt lat="43.497802249479605" lon="10.408381798578628"><ele>212.0</ele><time>2026-04-17T13:34:00Z</time></trkpt><trkpt lat="43.49779158578613" lon="10.408497913383371"><ele>215.5</ele><time>2026-04-17T13:34:01Z</time></trkpt><trkpt lat="43.497781136554124" lon="10.408583872580467"><ele>219.0</ele><time>2026-04-17T13:34:02Z</time></trkpt><trkpt lat="43.49776750150239" lon="10.408726081820651"><ele>217.16666666666666</ele><time>2026-04-17T13:34:04Z</time></trkpt><trkpt lat="43.497758979141096" lon="10.408885044417973"><ele>215.33333333333331</ele><time>2026-04-17T13:34:06Z</time></trkpt><trkpt lat="43.497757824950966" lon="10.408978800411022"><ele>213.5</ele><time>2026-04-17T13:34:07Z</time></trkpt><trkpt lat="43.49776216794991" lon="10.409072643197518"><ele>211.66666666666666</ele><time>2026-04-17T13:34:08Z</time></trkpt><trkpt lat="43.49778061078651" lon="10.409197886757433"><ele>209.83333333333331</ele><time>2026-04-17T13:34:10Z</time></trkpt><trkpt lat="43.497825859926515" lon="10.409311375489674"><ele>208.0</ele><time>2026-04-17T13:34:12Z</time></trkpt><trkpt lat="43.497905523428464" lon="10.409409579786429"><ele>208.2</ele><time>2026-04-17T13:34:14Z</time></trkpt><trkpt lat="43.49798620306207" lon="10.409519115657002"><ele>208.4</ele><time>2026-04-17T13:34:16Z</time></trkpt><trkpt lat="43.498053138411485" lon="10.409646481004625"><ele>208.6</ele><time>2026-04-17T13:34:18Z</time></trkpt><trkpt lat="43.498131681390284" lon="10.40976890556221"><ele>208.79999999999998</ele><time>2026-04-17T13:34:20Z</time></trkpt><trkpt lat="43.498175861476476" lon="10.40983664809602"><ele>209.0</ele><time>2026-04-17T13:34:21Z</time></trkpt><trkpt lat="43.49823348746245" lon="10.409913949795115"><ele>211.00000000000003</ele><time>2026-04-17T13:34:23Z</time></trkpt><trkpt lat="43.49828842023686" lon="10.409998835958111"><ele>213.0</ele><time>2026-04-17T13:34:25Z</time></trkpt><trkpt lat="43.498345590487666" lon="10.4101154760744"><ele>215.0</ele><time>2026-04-17T13:34:27Z</time></trkpt><trkpt lat="43.49839148071353" lon="10.41017497027924"><ele>217.0</ele><time>2026-04-17T13:34:28Z</time></trkpt><trkpt lat="43.49845195554967" lon="10.410271696091918"><ele>219.00000000000003</ele><time>2026-04-17T13:34:30Z</time></trkpt><trkpt lat="43.49849968167097" lon="10.410354918504504"><ele>221.0</ele><time>2026-04-17T13:34:32Z</time></trkpt><trkpt lat="43.49854817404719" lon="10.410435820201593"><ele>222.33333333333334</ele><time>2026-04-17T13:34:34Z</time></trkpt><trkpt lat="43.49859502289496" lon="10.410522527412573"><ele>223.66666666666669</ele><time>2026-04-17T13:34:36Z</time></trkpt><trkpt lat="43.49862342452009" lon="10.410606747390077"><ele>225.0</ele><time>2026-04-17T13:34:38Z</time></trkpt><trkpt lat="43.49865594152741" lon="10.410689324655365"><ele>226.33333333333331</ele><time>2026-04-17T13:34:40Z</time></trkpt><trkpt lat="43.49869116085556" lon="10.41078811640302"><ele>227.66666666666666</ele><time>2026-04-17T13:34:42Z</time></trkpt><trkpt lat="43.498713645623525" lon="10.41090633365518"><ele>229.0</ele><time>2026-04-17T13:34:44Z</time></trkpt><trkpt lat="43.49872402475101" lon="10.411032614583245"><ele>229.0</ele><time>2026-04-17T13:34:46Z</time></trkpt><trkpt lat="43.49874335380299" lon="10.411164729457795"><ele>229.0</ele><time>2026-04-17T13:34:48Z</time></trkpt><trkpt lat="43.498737788448075" lon="10.411260244584756"><ele>229.0</ele><time>2026-04-17T13:34:52Z</time></trkpt></trkseg><trkseg><trkpt lat="43.49875371399322" lon="10.411289310287662"><ele>230.4</ele><time>2026-04-17T13:57:48Z</time></trkpt></trkseg></trk></gpx>